﻿<?xml version="1.0" encoding="UTF-8" standalone="no" ?>
<gpx xmlns="http://www.topografix.com/GPX/1/1" creator="CompeGPS" version="1.1" xmlns:xsi="http://www.w3.org/2001/XMLSchema-instance" xsi:schemaLocation="http://www.topografix.com/GPX/1/1 http://www.topografix.com/GPX/1/1/gpx.xsd http://www.garmin.com/xmlschemas/GpxExtensions/v3 http://www.garmin.com/xmlschemas/GpxExtensionsv3.xsd http://www.garmin.com/xmlschemas/TrackPointExtension/v1 http://www.garmin.com/xmlschemas/TrackPointExtensionv1.xsd" xmlns:gpxtpx="http://www.garmin.com/xmlschemas/TrackPointExtension/v1">
  <metadata>
    <link href="http://www.compegps.com">
      <text>CompeGPS TEAM, SL</text>
    </link>
    <time>2019-09-07T20:07:45Z</time>
    <bounds maxlat="42.738319" maxlon="0.571511" minlat="42.701378" minlon="0.545443"/>
  </metadata>
  <trk>
    <name>maupas</name>
    <userMyTwoNav></userMyTwoNav>
    <serialNumber></serialNumber>
    <trkseg>
      <trkpt lat="42.738319" lon="0.556552">
        <ele>1071.6</ele>
        <time>2019-08-23T08:21:48Z</time>
      </trkpt>
      <trkpt lat="42.738315" lon="0.556467">
        <ele>1147.1</ele>
        <time>2019-08-23T08:22:05Z</time>
      </trkpt>
      <trkpt lat="42.738249" lon="0.556371">
        <ele>1147.4</ele>
        <time>2019-08-23T08:22:16Z</time>
      </trkpt>
      <trkpt lat="42.738167" lon="0.556268">
        <ele>1147.8</ele>
        <time>2019-08-23T08:22:27Z</time>
      </trkpt>
      <trkpt lat="42.738084" lon="0.556217">
        <ele>1148.1</ele>
        <time>2019-08-23T08:22:36Z</time>
      </trkpt>
      <trkpt lat="42.738001" lon="0.556172">
        <ele>1148.6</ele>
        <time>2019-08-23T08:22:46Z</time>
      </trkpt>
      <trkpt lat="42.737909" lon="0.556144">
        <ele>1149.1</ele>
        <time>2019-08-23T08:22:56Z</time>
      </trkpt>
      <trkpt lat="42.737801" lon="0.556095">
        <ele>1149.3</ele>
        <time>2019-08-23T08:23:06Z</time>
      </trkpt>
      <trkpt lat="42.737707" lon="0.556097">
        <ele>1149.7</ele>
        <time>2019-08-23T08:23:16Z</time>
      </trkpt>
      <trkpt lat="42.737616" lon="0.556071">
        <ele>1149.9</ele>
        <time>2019-08-23T08:23:25Z</time>
      </trkpt>
      <trkpt lat="42.737522" lon="0.556026">
        <ele>1150.1</ele>
        <time>2019-08-23T08:23:34Z</time>
      </trkpt>
      <trkpt lat="42.737433" lon="0.555989">
        <ele>1150.1</ele>
        <time>2019-08-23T08:23:44Z</time>
      </trkpt>
      <trkpt lat="42.737344" lon="0.555960">
        <ele>1150.2</ele>
        <time>2019-08-23T08:23:56Z</time>
      </trkpt>
      <trkpt lat="42.737238" lon="0.555946">
        <ele>1150.4</ele>
        <time>2019-08-23T08:24:04Z</time>
      </trkpt>
      <trkpt lat="42.737112" lon="0.555965">
        <ele>1150.9</ele>
        <time>2019-08-23T08:24:17Z</time>
      </trkpt>
      <trkpt lat="42.737026" lon="0.556007">
        <ele>1151.4</ele>
        <time>2019-08-23T08:24:27Z</time>
      </trkpt>
      <trkpt lat="42.736904" lon="0.556021">
        <ele>1152.1</ele>
        <time>2019-08-23T08:24:40Z</time>
      </trkpt>
      <trkpt lat="42.736807" lon="0.555997">
        <ele>1152.3</ele>
        <time>2019-08-23T08:24:51Z</time>
      </trkpt>
      <trkpt lat="42.736721" lon="0.555972">
        <ele>1152.9</ele>
        <time>2019-08-23T08:25:06Z</time>
      </trkpt>
      <trkpt lat="42.736628" lon="0.555925">
        <ele>1153.3</ele>
        <time>2019-08-23T08:25:18Z</time>
      </trkpt>
      <trkpt lat="42.736537" lon="0.555919">
        <ele>1153.9</ele>
        <time>2019-08-23T08:25:31Z</time>
      </trkpt>
      <trkpt lat="42.736443" lon="0.555913">
        <ele>1154.4</ele>
        <time>2019-08-23T08:25:40Z</time>
      </trkpt>
      <trkpt lat="42.736341" lon="0.555949">
        <ele>1154.6</ele>
        <time>2019-08-23T08:25:50Z</time>
      </trkpt>
      <trkpt lat="42.736243" lon="0.556003">
        <ele>1154.7</ele>
        <time>2019-08-23T08:26:01Z</time>
      </trkpt>
      <trkpt lat="42.736154" lon="0.556021">
        <ele>1155.0</ele>
        <time>2019-08-23T08:26:15Z</time>
      </trkpt>
      <trkpt lat="42.736107" lon="0.556106">
        <ele>1155.2</ele>
        <time>2019-08-23T08:26:26Z</time>
      </trkpt>
      <trkpt lat="42.736069" lon="0.556243">
        <ele>1154.9</ele>
        <time>2019-08-23T08:26:37Z</time>
      </trkpt>
      <trkpt lat="42.736042" lon="0.556370">
        <ele>1154.6</ele>
        <time>2019-08-23T08:26:48Z</time>
      </trkpt>
      <trkpt lat="42.736034" lon="0.556496">
        <ele>1154.7</ele>
        <time>2019-08-23T08:26:58Z</time>
      </trkpt>
      <trkpt lat="42.736026" lon="0.556611">
        <ele>1154.9</ele>
        <time>2019-08-23T08:27:08Z</time>
      </trkpt>
      <trkpt lat="42.735939" lon="0.556575">
        <ele>1154.4</ele>
        <time>2019-08-23T08:27:21Z</time>
      </trkpt>
      <trkpt lat="42.735940" lon="0.556643">
        <ele>1156.1</ele>
        <time>2019-08-23T08:27:55Z</time>
      </trkpt>
      <trkpt lat="42.735869" lon="0.556726">
        <ele>1157.7</ele>
        <time>2019-08-23T08:28:07Z</time>
      </trkpt>
      <trkpt lat="42.735778" lon="0.556769">
        <ele>1159.2</ele>
        <time>2019-08-23T08:28:18Z</time>
      </trkpt>
      <trkpt lat="42.735731" lon="0.556880">
        <ele>1159.7</ele>
        <time>2019-08-23T08:28:29Z</time>
      </trkpt>
      <trkpt lat="42.735648" lon="0.556931">
        <ele>1160.8</ele>
        <time>2019-08-23T08:28:40Z</time>
      </trkpt>
      <trkpt lat="42.735565" lon="0.556915">
        <ele>1161.8</ele>
        <time>2019-08-23T08:28:50Z</time>
      </trkpt>
      <trkpt lat="42.735490" lon="0.556836">
        <ele>1163.1</ele>
        <time>2019-08-23T08:29:02Z</time>
      </trkpt>
      <trkpt lat="42.735418" lon="0.556762">
        <ele>1163.9</ele>
        <time>2019-08-23T08:29:13Z</time>
      </trkpt>
      <trkpt lat="42.735339" lon="0.556690">
        <ele>1164.9</ele>
        <time>2019-08-23T08:29:24Z</time>
      </trkpt>
      <trkpt lat="42.735278" lon="0.556589">
        <ele>1165.9</ele>
        <time>2019-08-23T08:29:34Z</time>
      </trkpt>
      <trkpt lat="42.735196" lon="0.556529">
        <ele>1166.8</ele>
        <time>2019-08-23T08:29:44Z</time>
      </trkpt>
      <trkpt lat="42.735119" lon="0.556462">
        <ele>1168.1</ele>
        <time>2019-08-23T08:29:54Z</time>
      </trkpt>
      <trkpt lat="42.735026" lon="0.556463">
        <ele>1169.3</ele>
        <time>2019-08-23T08:30:05Z</time>
      </trkpt>
      <trkpt lat="42.734946" lon="0.556406">
        <ele>1172.0</ele>
        <time>2019-08-23T08:30:28Z</time>
      </trkpt>
      <trkpt lat="42.734855" lon="0.556424">
        <ele>1173.6</ele>
        <time>2019-08-23T08:30:39Z</time>
      </trkpt>
      <trkpt lat="42.734763" lon="0.556428">
        <ele>1175.3</ele>
        <time>2019-08-23T08:30:50Z</time>
      </trkpt>
      <trkpt lat="42.734667" lon="0.556423">
        <ele>1177.4</ele>
        <time>2019-08-23T08:31:01Z</time>
      </trkpt>
      <trkpt lat="42.734570" lon="0.556440">
        <ele>1179.3</ele>
        <time>2019-08-23T08:31:13Z</time>
      </trkpt>
      <trkpt lat="42.734471" lon="0.556455">
        <ele>1181.2</ele>
        <time>2019-08-23T08:31:25Z</time>
      </trkpt>
      <trkpt lat="42.734379" lon="0.556444">
        <ele>1182.2</ele>
        <time>2019-08-23T08:31:35Z</time>
      </trkpt>
      <trkpt lat="42.734292" lon="0.556444">
        <ele>1182.8</ele>
        <time>2019-08-23T08:31:44Z</time>
      </trkpt>
      <trkpt lat="42.734185" lon="0.556438">
        <ele>1183.8</ele>
        <time>2019-08-23T08:31:55Z</time>
      </trkpt>
      <trkpt lat="42.734088" lon="0.556468">
        <ele>1185.6</ele>
        <time>2019-08-23T08:32:06Z</time>
      </trkpt>
      <trkpt lat="42.734023" lon="0.556546">
        <ele>1187.2</ele>
        <time>2019-08-23T08:32:15Z</time>
      </trkpt>
      <trkpt lat="42.733934" lon="0.556572">
        <ele>1189.5</ele>
        <time>2019-08-23T08:32:27Z</time>
      </trkpt>
      <trkpt lat="42.733851" lon="0.556614">
        <ele>1190.9</ele>
        <time>2019-08-23T08:32:38Z</time>
      </trkpt>
      <trkpt lat="42.733771" lon="0.556742">
        <ele>1193.6</ele>
        <time>2019-08-23T08:32:52Z</time>
      </trkpt>
      <trkpt lat="42.733690" lon="0.556812">
        <ele>1196.2</ele>
        <time>2019-08-23T08:33:06Z</time>
      </trkpt>
      <trkpt lat="42.733576" lon="0.556820">
        <ele>1198.4</ele>
        <time>2019-08-23T08:33:19Z</time>
      </trkpt>
      <trkpt lat="42.733431" lon="0.556863">
        <ele>1201.5</ele>
        <time>2019-08-23T08:33:35Z</time>
      </trkpt>
      <trkpt lat="42.733382" lon="0.556938">
        <ele>1208.5</ele>
        <time>2019-08-23T08:34:25Z</time>
      </trkpt>
      <trkpt lat="42.733274" lon="0.557013">
        <ele>1209.8</ele>
        <time>2019-08-23T08:34:36Z</time>
      </trkpt>
      <trkpt lat="42.733221" lon="0.557163">
        <ele>1211.3</ele>
        <time>2019-08-23T08:34:51Z</time>
      </trkpt>
      <trkpt lat="42.733106" lon="0.557152">
        <ele>1213.1</ele>
        <time>2019-08-23T08:35:06Z</time>
      </trkpt>
      <trkpt lat="42.732977" lon="0.557155">
        <ele>1215.1</ele>
        <time>2019-08-23T08:35:20Z</time>
      </trkpt>
      <trkpt lat="42.732849" lon="0.557195">
        <ele>1218.0</ele>
        <time>2019-08-23T08:35:36Z</time>
      </trkpt>
      <trkpt lat="42.732750" lon="0.557315">
        <ele>1220.5</ele>
        <time>2019-08-23T08:35:49Z</time>
      </trkpt>
      <trkpt lat="42.732678" lon="0.557449">
        <ele>1222.6</ele>
        <time>2019-08-23T08:36:05Z</time>
      </trkpt>
      <trkpt lat="42.732632" lon="0.557611">
        <ele>1224.4</ele>
        <time>2019-08-23T08:36:17Z</time>
      </trkpt>
      <trkpt lat="42.732552" lon="0.557730">
        <ele>1226.2</ele>
        <time>2019-08-23T08:36:29Z</time>
      </trkpt>
      <trkpt lat="42.732524" lon="0.557809">
        <ele>1227.5</ele>
        <time>2019-08-23T08:36:47Z</time>
      </trkpt>
      <trkpt lat="42.732519" lon="0.557912">
        <ele>1229.5</ele>
        <time>2019-08-23T08:37:17Z</time>
      </trkpt>
      <trkpt lat="42.732383" lon="0.557967">
        <ele>1230.7</ele>
        <time>2019-08-23T08:37:29Z</time>
      </trkpt>
      <trkpt lat="42.732215" lon="0.558046">
        <ele>1232.5</ele>
        <time>2019-08-23T08:37:44Z</time>
      </trkpt>
      <trkpt lat="42.732275" lon="0.558047">
        <ele>1235.6</ele>
        <time>2019-08-23T08:38:00Z</time>
      </trkpt>
      <trkpt lat="42.732385" lon="0.558088">
        <ele>1237.9</ele>
        <time>2019-08-23T08:38:14Z</time>
      </trkpt>
      <trkpt lat="42.732394" lon="0.558139">
        <ele>1240.6</ele>
        <time>2019-08-23T08:38:28Z</time>
      </trkpt>
      <trkpt lat="42.732311" lon="0.558247">
        <ele>1242.4</ele>
        <time>2019-08-23T08:38:39Z</time>
      </trkpt>
      <trkpt lat="42.732402" lon="0.558281">
        <ele>1246.3</ele>
        <time>2019-08-23T08:39:35Z</time>
      </trkpt>
      <trkpt lat="42.732521" lon="0.558333">
        <ele>1248.5</ele>
        <time>2019-08-23T08:39:48Z</time>
      </trkpt>
      <trkpt lat="42.732637" lon="0.558248">
        <ele>1250.5</ele>
        <time>2019-08-23T08:40:00Z</time>
      </trkpt>
      <trkpt lat="42.732752" lon="0.558205">
        <ele>1253.7</ele>
        <time>2019-08-23T08:40:19Z</time>
      </trkpt>
      <trkpt lat="42.732854" lon="0.558315">
        <ele>1257.1</ele>
        <time>2019-08-23T08:40:35Z</time>
      </trkpt>
      <trkpt lat="42.732971" lon="0.558346">
        <ele>1259.4</ele>
        <time>2019-08-23T08:40:47Z</time>
      </trkpt>
      <trkpt lat="42.733069" lon="0.558384">
        <ele>1261.4</ele>
        <time>2019-08-23T08:41:03Z</time>
      </trkpt>
      <trkpt lat="42.732960" lon="0.558415">
        <ele>1263.7</ele>
        <time>2019-08-23T08:41:16Z</time>
      </trkpt>
      <trkpt lat="42.732844" lon="0.558448">
        <ele>1266.2</ele>
        <time>2019-08-23T08:41:31Z</time>
      </trkpt>
      <trkpt lat="42.732741" lon="0.558546">
        <ele>1268.9</ele>
        <time>2019-08-23T08:41:45Z</time>
      </trkpt>
      <trkpt lat="42.732610" lon="0.558644">
        <ele>1271.8</ele>
        <time>2019-08-23T08:42:01Z</time>
      </trkpt>
      <trkpt lat="42.732637" lon="0.558721">
        <ele>1274.8</ele>
        <time>2019-08-23T08:42:17Z</time>
      </trkpt>
      <trkpt lat="42.732752" lon="0.558715">
        <ele>1278.2</ele>
        <time>2019-08-23T08:42:34Z</time>
      </trkpt>
      <trkpt lat="42.732885" lon="0.558718">
        <ele>1281.2</ele>
        <time>2019-08-23T08:42:48Z</time>
      </trkpt>
      <trkpt lat="42.732997" lon="0.558743">
        <ele>1284.1</ele>
        <time>2019-08-23T08:43:02Z</time>
      </trkpt>
      <trkpt lat="42.733103" lon="0.558818">
        <ele>1287.2</ele>
        <time>2019-08-23T08:43:15Z</time>
      </trkpt>
      <trkpt lat="42.733207" lon="0.558884">
        <ele>1290.6</ele>
        <time>2019-08-23T08:43:30Z</time>
      </trkpt>
      <trkpt lat="42.733317" lon="0.558911">
        <ele>1292.9</ele>
        <time>2019-08-23T08:43:42Z</time>
      </trkpt>
      <trkpt lat="42.733344" lon="0.558952">
        <ele>1297.0</ele>
        <time>2019-08-23T08:44:01Z</time>
      </trkpt>
      <trkpt lat="42.733236" lon="0.558974">
        <ele>1299.8</ele>
        <time>2019-08-23T08:44:16Z</time>
      </trkpt>
      <trkpt lat="42.733111" lon="0.559005">
        <ele>1302.0</ele>
        <time>2019-08-23T08:44:28Z</time>
      </trkpt>
      <trkpt lat="42.732994" lon="0.558983">
        <ele>1304.0</ele>
        <time>2019-08-23T08:44:40Z</time>
      </trkpt>
      <trkpt lat="42.732919" lon="0.559103">
        <ele>1306.7</ele>
        <time>2019-08-23T08:44:53Z</time>
      </trkpt>
      <trkpt lat="42.732875" lon="0.559210">
        <ele>1308.4</ele>
        <time>2019-08-23T08:45:04Z</time>
      </trkpt>
      <trkpt lat="42.732791" lon="0.559355">
        <ele>1310.9</ele>
        <time>2019-08-23T08:45:16Z</time>
      </trkpt>
      <trkpt lat="42.732818" lon="0.559473">
        <ele>1313.7</ele>
        <time>2019-08-23T08:45:32Z</time>
      </trkpt>
      <trkpt lat="42.732884" lon="0.559392">
        <ele>1316.2</ele>
        <time>2019-08-23T08:45:45Z</time>
      </trkpt>
      <trkpt lat="42.732995" lon="0.559367">
        <ele>1319.5</ele>
        <time>2019-08-23T08:46:02Z</time>
      </trkpt>
      <trkpt lat="42.733104" lon="0.559385">
        <ele>1321.6</ele>
        <time>2019-08-23T08:46:14Z</time>
      </trkpt>
      <trkpt lat="42.733200" lon="0.559441">
        <ele>1324.0</ele>
        <time>2019-08-23T08:46:27Z</time>
      </trkpt>
      <trkpt lat="42.733292" lon="0.559505">
        <ele>1327.3</ele>
        <time>2019-08-23T08:46:42Z</time>
      </trkpt>
      <trkpt lat="42.733398" lon="0.559574">
        <ele>1330.1</ele>
        <time>2019-08-23T08:46:55Z</time>
      </trkpt>
      <trkpt lat="42.733505" lon="0.559579">
        <ele>1332.9</ele>
        <time>2019-08-23T08:47:08Z</time>
      </trkpt>
      <trkpt lat="42.733616" lon="0.559636">
        <ele>1335.9</ele>
        <time>2019-08-23T08:47:23Z</time>
      </trkpt>
      <trkpt lat="42.733490" lon="0.559645">
        <ele>1338.3</ele>
        <time>2019-08-23T08:47:35Z</time>
      </trkpt>
      <trkpt lat="42.733394" lon="0.559713">
        <ele>1341.9</ele>
        <time>2019-08-23T08:47:50Z</time>
      </trkpt>
      <trkpt lat="42.733270" lon="0.559756">
        <ele>1345.1</ele>
        <time>2019-08-23T08:48:03Z</time>
      </trkpt>
      <trkpt lat="42.733135" lon="0.559801">
        <ele>1348.8</ele>
        <time>2019-08-23T08:48:19Z</time>
      </trkpt>
      <trkpt lat="42.733061" lon="0.559942">
        <ele>1351.6</ele>
        <time>2019-08-23T08:48:33Z</time>
      </trkpt>
      <trkpt lat="42.733011" lon="0.560057">
        <ele>1354.4</ele>
        <time>2019-08-23T08:48:46Z</time>
      </trkpt>
      <trkpt lat="42.732947" lon="0.560180">
        <ele>1357.3</ele>
        <time>2019-08-23T08:48:59Z</time>
      </trkpt>
      <trkpt lat="42.732871" lon="0.560298">
        <ele>1360.0</ele>
        <time>2019-08-23T08:49:11Z</time>
      </trkpt>
      <trkpt lat="42.732779" lon="0.560400">
        <ele>1362.6</ele>
        <time>2019-08-23T08:49:24Z</time>
      </trkpt>
      <trkpt lat="42.732639" lon="0.560391">
        <ele>1365.0</ele>
        <time>2019-08-23T08:49:37Z</time>
      </trkpt>
      <trkpt lat="42.732504" lon="0.560447">
        <ele>1367.2</ele>
        <time>2019-08-23T08:49:50Z</time>
      </trkpt>
      <trkpt lat="42.732415" lon="0.560568">
        <ele>1370.4</ele>
        <time>2019-08-23T08:50:05Z</time>
      </trkpt>
      <trkpt lat="42.732330" lon="0.560649">
        <ele>1372.5</ele>
        <time>2019-08-23T08:50:17Z</time>
      </trkpt>
      <trkpt lat="42.732258" lon="0.560809">
        <ele>1374.5</ele>
        <time>2019-08-23T08:50:29Z</time>
      </trkpt>
      <trkpt lat="42.732140" lon="0.560828">
        <ele>1376.5</ele>
        <time>2019-08-23T08:50:39Z</time>
      </trkpt>
      <trkpt lat="42.732007" lon="0.560816">
        <ele>1379.9</ele>
        <time>2019-08-23T08:50:50Z</time>
      </trkpt>
      <trkpt lat="42.731896" lon="0.560849">
        <ele>1382.8</ele>
        <time>2019-08-23T08:51:02Z</time>
      </trkpt>
      <trkpt lat="42.731739" lon="0.560893">
        <ele>1387.7</ele>
        <time>2019-08-23T08:51:15Z</time>
      </trkpt>
      <trkpt lat="42.731608" lon="0.560904">
        <ele>1392.8</ele>
        <time>2019-08-23T08:51:29Z</time>
      </trkpt>
      <trkpt lat="42.731476" lon="0.560950">
        <ele>1396.1</ele>
        <time>2019-08-23T08:51:41Z</time>
      </trkpt>
      <trkpt lat="42.731336" lon="0.560979">
        <ele>1399.3</ele>
        <time>2019-08-23T08:51:53Z</time>
      </trkpt>
      <trkpt lat="42.731246" lon="0.561058">
        <ele>1401.6</ele>
        <time>2019-08-23T08:52:02Z</time>
      </trkpt>
      <trkpt lat="42.731134" lon="0.561127">
        <ele>1403.1</ele>
        <time>2019-08-23T08:52:13Z</time>
      </trkpt>
      <trkpt lat="42.730985" lon="0.561203">
        <ele>1403.6</ele>
        <time>2019-08-23T08:52:23Z</time>
      </trkpt>
      <trkpt lat="42.730870" lon="0.561282">
        <ele>1404.5</ele>
        <time>2019-08-23T08:52:34Z</time>
      </trkpt>
      <trkpt lat="42.730763" lon="0.561359">
        <ele>1405.4</ele>
        <time>2019-08-23T08:52:44Z</time>
      </trkpt>
      <trkpt lat="42.730660" lon="0.561475">
        <ele>1407.5</ele>
        <time>2019-08-23T08:52:53Z</time>
      </trkpt>
      <trkpt lat="42.730537" lon="0.561558">
        <ele>1409.0</ele>
        <time>2019-08-23T08:53:05Z</time>
      </trkpt>
      <trkpt lat="42.730452" lon="0.561666">
        <ele>1409.6</ele>
        <time>2019-08-23T08:53:16Z</time>
      </trkpt>
      <trkpt lat="42.730375" lon="0.561754">
        <ele>1410.2</ele>
        <time>2019-08-23T08:53:25Z</time>
      </trkpt>
      <trkpt lat="42.730278" lon="0.561849">
        <ele>1410.3</ele>
        <time>2019-08-23T08:53:34Z</time>
      </trkpt>
      <trkpt lat="42.730242" lon="0.561977">
        <ele>1409.1</ele>
        <time>2019-08-23T08:53:54Z</time>
      </trkpt>
      <trkpt lat="42.730260" lon="0.561975">
        <ele>1408.7</ele>
        <time>2019-08-23T08:54:43Z</time>
      </trkpt>
      <trkpt lat="42.730174" lon="0.561967">
        <ele>1408.5</ele>
        <time>2019-08-23T08:55:24Z</time>
      </trkpt>
      <trkpt lat="42.730160" lon="0.561896">
        <ele>1410.1</ele>
        <time>2019-08-23T08:55:41Z</time>
      </trkpt>
      <trkpt lat="42.730049" lon="0.561962">
        <ele>1410.4</ele>
        <time>2019-08-23T08:55:51Z</time>
      </trkpt>
      <trkpt lat="42.729941" lon="0.562016">
        <ele>1411.0</ele>
        <time>2019-08-23T08:56:06Z</time>
      </trkpt>
      <trkpt lat="42.729841" lon="0.562062">
        <ele>1411.7</ele>
        <time>2019-08-23T08:56:16Z</time>
      </trkpt>
      <trkpt lat="42.729737" lon="0.562139">
        <ele>1412.2</ele>
        <time>2019-08-23T08:56:27Z</time>
      </trkpt>
      <trkpt lat="42.729630" lon="0.562226">
        <ele>1413.0</ele>
        <time>2019-08-23T08:56:38Z</time>
      </trkpt>
      <trkpt lat="42.729489" lon="0.562303">
        <ele>1413.5</ele>
        <time>2019-08-23T08:56:54Z</time>
      </trkpt>
      <trkpt lat="42.729381" lon="0.562341">
        <ele>1414.6</ele>
        <time>2019-08-23T08:57:06Z</time>
      </trkpt>
      <trkpt lat="42.729314" lon="0.562463">
        <ele>1415.8</ele>
        <time>2019-08-23T08:57:17Z</time>
      </trkpt>
      <trkpt lat="42.729238" lon="0.562481">
        <ele>1416.2</ele>
        <time>2019-08-23T08:57:29Z</time>
      </trkpt>
      <trkpt lat="42.729188" lon="0.562343">
        <ele>1417.1</ele>
        <time>2019-08-23T08:57:40Z</time>
      </trkpt>
      <trkpt lat="42.729113" lon="0.562269">
        <ele>1417.5</ele>
        <time>2019-08-23T08:57:49Z</time>
      </trkpt>
      <trkpt lat="42.729039" lon="0.562201">
        <ele>1418.2</ele>
        <time>2019-08-23T08:58:01Z</time>
      </trkpt>
      <trkpt lat="42.728965" lon="0.562092">
        <ele>1419.7</ele>
        <time>2019-08-23T08:58:12Z</time>
      </trkpt>
      <trkpt lat="42.728846" lon="0.562027">
        <ele>1422.0</ele>
        <time>2019-08-23T08:58:26Z</time>
      </trkpt>
      <trkpt lat="42.728781" lon="0.561911">
        <ele>1421.9</ele>
        <time>2019-08-23T08:58:38Z</time>
      </trkpt>
      <trkpt lat="42.728768" lon="0.561834">
        <ele>1423.6</ele>
        <time>2019-08-23T08:59:17Z</time>
      </trkpt>
      <trkpt lat="42.728705" lon="0.561928">
        <ele>1425.8</ele>
        <time>2019-08-23T08:59:28Z</time>
      </trkpt>
      <trkpt lat="42.728650" lon="0.562021">
        <ele>1428.5</ele>
        <time>2019-08-23T08:59:40Z</time>
      </trkpt>
      <trkpt lat="42.728586" lon="0.562107">
        <ele>1431.3</ele>
        <time>2019-08-23T08:59:51Z</time>
      </trkpt>
      <trkpt lat="42.728520" lon="0.562195">
        <ele>1434.0</ele>
        <time>2019-08-23T09:00:02Z</time>
      </trkpt>
      <trkpt lat="42.728454" lon="0.562280">
        <ele>1436.4</ele>
        <time>2019-08-23T09:00:12Z</time>
      </trkpt>
      <trkpt lat="42.728383" lon="0.562375">
        <ele>1439.1</ele>
        <time>2019-08-23T09:00:23Z</time>
      </trkpt>
      <trkpt lat="42.728326" lon="0.562467">
        <ele>1441.6</ele>
        <time>2019-08-23T09:00:33Z</time>
      </trkpt>
      <trkpt lat="42.728265" lon="0.562556">
        <ele>1444.1</ele>
        <time>2019-08-23T09:00:43Z</time>
      </trkpt>
      <trkpt lat="42.728190" lon="0.562616">
        <ele>1446.6</ele>
        <time>2019-08-23T09:00:53Z</time>
      </trkpt>
      <trkpt lat="42.728116" lon="0.562696">
        <ele>1449.3</ele>
        <time>2019-08-23T09:01:04Z</time>
      </trkpt>
      <trkpt lat="42.728046" lon="0.562799">
        <ele>1451.6</ele>
        <time>2019-08-23T09:01:16Z</time>
      </trkpt>
      <trkpt lat="42.727982" lon="0.562891">
        <ele>1454.1</ele>
        <time>2019-08-23T09:01:27Z</time>
      </trkpt>
      <trkpt lat="42.727901" lon="0.562960">
        <ele>1456.4</ele>
        <time>2019-08-23T09:01:38Z</time>
      </trkpt>
      <trkpt lat="42.727850" lon="0.563059">
        <ele>1458.7</ele>
        <time>2019-08-23T09:01:48Z</time>
      </trkpt>
      <trkpt lat="42.727788" lon="0.563157">
        <ele>1461.4</ele>
        <time>2019-08-23T09:01:59Z</time>
      </trkpt>
      <trkpt lat="42.727721" lon="0.563239">
        <ele>1463.6</ele>
        <time>2019-08-23T09:02:09Z</time>
      </trkpt>
      <trkpt lat="42.727661" lon="0.563338">
        <ele>1466.0</ele>
        <time>2019-08-23T09:02:20Z</time>
      </trkpt>
      <trkpt lat="42.727611" lon="0.563437">
        <ele>1468.2</ele>
        <time>2019-08-23T09:02:32Z</time>
      </trkpt>
      <trkpt lat="42.727551" lon="0.563539">
        <ele>1470.7</ele>
        <time>2019-08-23T09:02:42Z</time>
      </trkpt>
      <trkpt lat="42.727487" lon="0.563627">
        <ele>1473.7</ele>
        <time>2019-08-23T09:02:54Z</time>
      </trkpt>
      <trkpt lat="42.727443" lon="0.563734">
        <ele>1476.7</ele>
        <time>2019-08-23T09:03:06Z</time>
      </trkpt>
      <trkpt lat="42.727368" lon="0.563807">
        <ele>1478.7</ele>
        <time>2019-08-23T09:03:17Z</time>
      </trkpt>
      <trkpt lat="42.727290" lon="0.563854">
        <ele>1480.7</ele>
        <time>2019-08-23T09:03:27Z</time>
      </trkpt>
      <trkpt lat="42.727235" lon="0.563940">
        <ele>1482.6</ele>
        <time>2019-08-23T09:03:44Z</time>
      </trkpt>
      <trkpt lat="42.727155" lon="0.564018">
        <ele>1484.9</ele>
        <time>2019-08-23T09:03:55Z</time>
      </trkpt>
      <trkpt lat="42.727080" lon="0.564093">
        <ele>1487.2</ele>
        <time>2019-08-23T09:04:06Z</time>
      </trkpt>
      <trkpt lat="42.727012" lon="0.564186">
        <ele>1487.3</ele>
        <time>2019-08-23T09:04:19Z</time>
      </trkpt>
      <trkpt lat="42.726930" lon="0.564282">
        <ele>1486.8</ele>
        <time>2019-08-23T09:04:30Z</time>
      </trkpt>
      <trkpt lat="42.726812" lon="0.564342">
        <ele>1485.8</ele>
        <time>2019-08-23T09:04:42Z</time>
      </trkpt>
      <trkpt lat="42.726709" lon="0.564365">
        <ele>1485.1</ele>
        <time>2019-08-23T09:04:56Z</time>
      </trkpt>
      <trkpt lat="42.726620" lon="0.564429">
        <ele>1485.3</ele>
        <time>2019-08-23T09:05:06Z</time>
      </trkpt>
      <trkpt lat="42.726529" lon="0.564497">
        <ele>1486.0</ele>
        <time>2019-08-23T09:05:15Z</time>
      </trkpt>
      <trkpt lat="42.726432" lon="0.564525">
        <ele>1487.5</ele>
        <time>2019-08-23T09:05:24Z</time>
      </trkpt>
      <trkpt lat="42.726352" lon="0.564565">
        <ele>1488.7</ele>
        <time>2019-08-23T09:05:32Z</time>
      </trkpt>
      <trkpt lat="42.726275" lon="0.564654">
        <ele>1490.1</ele>
        <time>2019-08-23T09:05:41Z</time>
      </trkpt>
      <trkpt lat="42.726229" lon="0.564792">
        <ele>1490.5</ele>
        <time>2019-08-23T09:05:52Z</time>
      </trkpt>
      <trkpt lat="42.726133" lon="0.564812">
        <ele>1490.0</ele>
        <time>2019-08-23T09:06:01Z</time>
      </trkpt>
      <trkpt lat="42.726044" lon="0.564861">
        <ele>1489.5</ele>
        <time>2019-08-23T09:06:08Z</time>
      </trkpt>
      <trkpt lat="42.725946" lon="0.564912">
        <ele>1489.4</ele>
        <time>2019-08-23T09:06:15Z</time>
      </trkpt>
      <trkpt lat="42.725832" lon="0.564984">
        <ele>1490.0</ele>
        <time>2019-08-23T09:06:24Z</time>
      </trkpt>
      <trkpt lat="42.725745" lon="0.565089">
        <ele>1491.1</ele>
        <time>2019-08-23T09:06:33Z</time>
      </trkpt>
      <trkpt lat="42.725629" lon="0.565139">
        <ele>1492.5</ele>
        <time>2019-08-23T09:06:43Z</time>
      </trkpt>
      <trkpt lat="42.725559" lon="0.565221">
        <ele>1493.8</ele>
        <time>2019-08-23T09:06:51Z</time>
      </trkpt>
      <trkpt lat="42.725467" lon="0.565330">
        <ele>1494.3</ele>
        <time>2019-08-23T09:07:00Z</time>
      </trkpt>
      <trkpt lat="42.725383" lon="0.565410">
        <ele>1494.4</ele>
        <time>2019-08-23T09:07:09Z</time>
      </trkpt>
      <trkpt lat="42.725294" lon="0.565495">
        <ele>1494.9</ele>
        <time>2019-08-23T09:07:17Z</time>
      </trkpt>
      <trkpt lat="42.725178" lon="0.565543">
        <ele>1496.5</ele>
        <time>2019-08-23T09:07:26Z</time>
      </trkpt>
      <trkpt lat="42.725060" lon="0.565570">
        <ele>1499.1</ele>
        <time>2019-08-23T09:07:35Z</time>
      </trkpt>
      <trkpt lat="42.724965" lon="0.565634">
        <ele>1501.7</ele>
        <time>2019-08-23T09:07:43Z</time>
      </trkpt>
      <trkpt lat="42.724919" lon="0.565762">
        <ele>1503.1</ele>
        <time>2019-08-23T09:07:55Z</time>
      </trkpt>
      <trkpt lat="42.724883" lon="0.565876">
        <ele>1505.2</ele>
        <time>2019-08-23T09:08:23Z</time>
      </trkpt>
      <trkpt lat="42.724819" lon="0.565944">
        <ele>1507.1</ele>
        <time>2019-08-23T09:08:41Z</time>
      </trkpt>
      <trkpt lat="42.724771" lon="0.566049">
        <ele>1508.7</ele>
        <time>2019-08-23T09:08:56Z</time>
      </trkpt>
      <trkpt lat="42.724691" lon="0.566150">
        <ele>1510.7</ele>
        <time>2019-08-23T09:09:06Z</time>
      </trkpt>
      <trkpt lat="42.724605" lon="0.566236">
        <ele>1513.5</ele>
        <time>2019-08-23T09:09:23Z</time>
      </trkpt>
      <trkpt lat="42.724548" lon="0.566354">
        <ele>1516.2</ele>
        <time>2019-08-23T09:09:37Z</time>
      </trkpt>
      <trkpt lat="42.724482" lon="0.566451">
        <ele>1519.0</ele>
        <time>2019-08-23T09:09:49Z</time>
      </trkpt>
      <trkpt lat="42.724365" lon="0.566530">
        <ele>1523.2</ele>
        <time>2019-08-23T09:10:05Z</time>
      </trkpt>
      <trkpt lat="42.724291" lon="0.566614">
        <ele>1527.2</ele>
        <time>2019-08-23T09:10:19Z</time>
      </trkpt>
      <trkpt lat="42.724234" lon="0.566728">
        <ele>1530.3</ele>
        <time>2019-08-23T09:10:33Z</time>
      </trkpt>
      <trkpt lat="42.724136" lon="0.566778">
        <ele>1533.5</ele>
        <time>2019-08-23T09:10:44Z</time>
      </trkpt>
      <trkpt lat="42.724098" lon="0.566879">
        <ele>1535.6</ele>
        <time>2019-08-23T09:10:54Z</time>
      </trkpt>
      <trkpt lat="42.724014" lon="0.566919">
        <ele>1536.9</ele>
        <time>2019-08-23T09:11:05Z</time>
      </trkpt>
      <trkpt lat="42.723938" lon="0.566991">
        <ele>1538.4</ele>
        <time>2019-08-23T09:11:16Z</time>
      </trkpt>
      <trkpt lat="42.723875" lon="0.567084">
        <ele>1539.6</ele>
        <time>2019-08-23T09:11:27Z</time>
      </trkpt>
      <trkpt lat="42.723768" lon="0.567137">
        <ele>1539.7</ele>
        <time>2019-08-23T09:11:38Z</time>
      </trkpt>
      <trkpt lat="42.723675" lon="0.567205">
        <ele>1539.0</ele>
        <time>2019-08-23T09:11:51Z</time>
      </trkpt>
      <trkpt lat="42.723605" lon="0.567263">
        <ele>1539.7</ele>
        <time>2019-08-23T09:12:02Z</time>
      </trkpt>
      <trkpt lat="42.723528" lon="0.567314">
        <ele>1542.3</ele>
        <time>2019-08-23T09:12:13Z</time>
      </trkpt>
      <trkpt lat="42.723442" lon="0.567321">
        <ele>1545.7</ele>
        <time>2019-08-23T09:12:22Z</time>
      </trkpt>
      <trkpt lat="42.723363" lon="0.567436">
        <ele>1549.0</ele>
        <time>2019-08-23T09:12:33Z</time>
      </trkpt>
      <trkpt lat="42.723271" lon="0.567487">
        <ele>1552.1</ele>
        <time>2019-08-23T09:12:45Z</time>
      </trkpt>
      <trkpt lat="42.723172" lon="0.567524">
        <ele>1554.2</ele>
        <time>2019-08-23T09:12:57Z</time>
      </trkpt>
      <trkpt lat="42.723087" lon="0.567574">
        <ele>1556.1</ele>
        <time>2019-08-23T09:13:08Z</time>
      </trkpt>
      <trkpt lat="42.722973" lon="0.567581">
        <ele>1558.7</ele>
        <time>2019-08-23T09:13:19Z</time>
      </trkpt>
      <trkpt lat="42.722885" lon="0.567615">
        <ele>1562.3</ele>
        <time>2019-08-23T09:13:33Z</time>
      </trkpt>
      <trkpt lat="42.722796" lon="0.567594">
        <ele>1565.5</ele>
        <time>2019-08-23T09:13:45Z</time>
      </trkpt>
      <trkpt lat="42.722744" lon="0.567683">
        <ele>1568.6</ele>
        <time>2019-08-23T09:14:00Z</time>
      </trkpt>
      <trkpt lat="42.722649" lon="0.567711">
        <ele>1570.3</ele>
        <time>2019-08-23T09:14:10Z</time>
      </trkpt>
      <trkpt lat="42.722573" lon="0.567819">
        <ele>1572.3</ele>
        <time>2019-08-23T09:14:23Z</time>
      </trkpt>
      <trkpt lat="42.722516" lon="0.567921">
        <ele>1573.8</ele>
        <time>2019-08-23T09:14:38Z</time>
      </trkpt>
      <trkpt lat="42.722487" lon="0.567968">
        <ele>1576.9</ele>
        <time>2019-08-23T09:15:00Z</time>
      </trkpt>
      <trkpt lat="42.722444" lon="0.568070">
        <ele>1580.0</ele>
        <time>2019-08-23T09:15:14Z</time>
      </trkpt>
      <trkpt lat="42.722413" lon="0.568211">
        <ele>1588.6</ele>
        <time>2019-08-23T09:17:48Z</time>
      </trkpt>
      <trkpt lat="42.722345" lon="0.568304">
        <ele>1591.6</ele>
        <time>2019-08-23T09:18:04Z</time>
      </trkpt>
      <trkpt lat="42.722317" lon="0.568402">
        <ele>1594.5</ele>
        <time>2019-08-23T09:18:21Z</time>
      </trkpt>
      <trkpt lat="42.722274" lon="0.568506">
        <ele>1597.3</ele>
        <time>2019-08-23T09:18:40Z</time>
      </trkpt>
      <trkpt lat="42.722191" lon="0.568534">
        <ele>1600.8</ele>
        <time>2019-08-23T09:18:54Z</time>
      </trkpt>
      <trkpt lat="42.722100" lon="0.568567">
        <ele>1604.7</ele>
        <time>2019-08-23T09:19:09Z</time>
      </trkpt>
      <trkpt lat="42.722124" lon="0.568667">
        <ele>1607.3</ele>
        <time>2019-08-23T09:19:24Z</time>
      </trkpt>
      <trkpt lat="42.722176" lon="0.568739">
        <ele>1611.3</ele>
        <time>2019-08-23T09:19:41Z</time>
      </trkpt>
      <trkpt lat="42.722103" lon="0.568828">
        <ele>1614.2</ele>
        <time>2019-08-23T09:19:52Z</time>
      </trkpt>
      <trkpt lat="42.722007" lon="0.568845">
        <ele>1617.8</ele>
        <time>2019-08-23T09:20:07Z</time>
      </trkpt>
      <trkpt lat="42.721936" lon="0.568872">
        <ele>1620.6</ele>
        <time>2019-08-23T09:20:37Z</time>
      </trkpt>
      <trkpt lat="42.721834" lon="0.568847">
        <ele>1622.7</ele>
        <time>2019-08-23T09:20:50Z</time>
      </trkpt>
      <trkpt lat="42.721736" lon="0.568905">
        <ele>1624.6</ele>
        <time>2019-08-23T09:21:03Z</time>
      </trkpt>
      <trkpt lat="42.721682" lon="0.569014">
        <ele>1627.1</ele>
        <time>2019-08-23T09:21:15Z</time>
      </trkpt>
      <trkpt lat="42.721643" lon="0.569137">
        <ele>1630.1</ele>
        <time>2019-08-23T09:21:30Z</time>
      </trkpt>
      <trkpt lat="42.721635" lon="0.569273">
        <ele>1634.4</ele>
        <time>2019-08-23T09:21:48Z</time>
      </trkpt>
      <trkpt lat="42.721602" lon="0.569362">
        <ele>1637.9</ele>
        <time>2019-08-23T09:22:05Z</time>
      </trkpt>
      <trkpt lat="42.721605" lon="0.569510">
        <ele>1640.6</ele>
        <time>2019-08-23T09:22:17Z</time>
      </trkpt>
      <trkpt lat="42.721575" lon="0.569622">
        <ele>1644.4</ele>
        <time>2019-08-23T09:22:34Z</time>
      </trkpt>
      <trkpt lat="42.721511" lon="0.569721">
        <ele>1647.9</ele>
        <time>2019-08-23T09:22:52Z</time>
      </trkpt>
      <trkpt lat="42.721430" lon="0.569792">
        <ele>1651.3</ele>
        <time>2019-08-23T09:23:10Z</time>
      </trkpt>
      <trkpt lat="42.721348" lon="0.569881">
        <ele>1654.3</ele>
        <time>2019-08-23T09:23:30Z</time>
      </trkpt>
      <trkpt lat="42.721288" lon="0.569984">
        <ele>1656.4</ele>
        <time>2019-08-23T09:23:44Z</time>
      </trkpt>
      <trkpt lat="42.721266" lon="0.570096">
        <ele>1658.5</ele>
        <time>2019-08-23T09:23:57Z</time>
      </trkpt>
      <trkpt lat="42.721194" lon="0.570189">
        <ele>1659.6</ele>
        <time>2019-08-23T09:24:08Z</time>
      </trkpt>
      <trkpt lat="42.721108" lon="0.570270">
        <ele>1661.6</ele>
        <time>2019-08-23T09:24:18Z</time>
      </trkpt>
      <trkpt lat="42.721036" lon="0.570362">
        <ele>1664.1</ele>
        <time>2019-08-23T09:24:30Z</time>
      </trkpt>
      <trkpt lat="42.720945" lon="0.570443">
        <ele>1666.3</ele>
        <time>2019-08-23T09:24:43Z</time>
      </trkpt>
      <trkpt lat="42.720890" lon="0.570534">
        <ele>1668.7</ele>
        <time>2019-08-23T09:24:56Z</time>
      </trkpt>
      <trkpt lat="42.720842" lon="0.570613">
        <ele>1670.8</ele>
        <time>2019-08-23T09:25:08Z</time>
      </trkpt>
      <trkpt lat="42.720799" lon="0.570679">
        <ele>1673.4</ele>
        <time>2019-08-23T09:25:22Z</time>
      </trkpt>
      <trkpt lat="42.720719" lon="0.570740">
        <ele>1676.3</ele>
        <time>2019-08-23T09:25:34Z</time>
      </trkpt>
      <trkpt lat="42.720645" lon="0.570818">
        <ele>1678.7</ele>
        <time>2019-08-23T09:25:46Z</time>
      </trkpt>
      <trkpt lat="42.720576" lon="0.570902">
        <ele>1681.9</ele>
        <time>2019-08-23T09:25:58Z</time>
      </trkpt>
      <trkpt lat="42.720557" lon="0.571036">
        <ele>1685.5</ele>
        <time>2019-08-23T09:26:14Z</time>
      </trkpt>
      <trkpt lat="42.720499" lon="0.571120">
        <ele>1688.7</ele>
        <time>2019-08-23T09:26:28Z</time>
      </trkpt>
      <trkpt lat="42.720462" lon="0.571206">
        <ele>1690.5</ele>
        <time>2019-08-23T09:26:54Z</time>
      </trkpt>
      <trkpt lat="42.720404" lon="0.571222">
        <ele>1693.7</ele>
        <time>2019-08-23T09:27:10Z</time>
      </trkpt>
      <trkpt lat="42.720369" lon="0.571323">
        <ele>1696.2</ele>
        <time>2019-08-23T09:27:25Z</time>
      </trkpt>
      <trkpt lat="42.720341" lon="0.571428">
        <ele>1697.4</ele>
        <time>2019-08-23T09:27:49Z</time>
      </trkpt>
      <trkpt lat="42.720317" lon="0.571446">
        <ele>1698.4</ele>
        <time>2019-08-23T09:29:02Z</time>
      </trkpt>
      <trkpt lat="42.720237" lon="0.571511">
        <ele>1699.2</ele>
        <time>2019-08-23T09:29:15Z</time>
      </trkpt>
      <trkpt lat="42.720197" lon="0.571427">
        <ele>1700.6</ele>
        <time>2019-08-23T09:29:34Z</time>
      </trkpt>
      <trkpt lat="42.720222" lon="0.571292">
        <ele>1702.1</ele>
        <time>2019-08-23T09:29:45Z</time>
      </trkpt>
      <trkpt lat="42.720286" lon="0.571194">
        <ele>1703.5</ele>
        <time>2019-08-23T09:29:55Z</time>
      </trkpt>
      <trkpt lat="42.720326" lon="0.571056">
        <ele>1704.4</ele>
        <time>2019-08-23T09:30:05Z</time>
      </trkpt>
      <trkpt lat="42.720349" lon="0.570933">
        <ele>1704.7</ele>
        <time>2019-08-23T09:30:15Z</time>
      </trkpt>
      <trkpt lat="42.720390" lon="0.570784">
        <ele>1704.0</ele>
        <time>2019-08-23T09:30:28Z</time>
      </trkpt>
      <trkpt lat="42.720371" lon="0.570654">
        <ele>1704.2</ele>
        <time>2019-08-23T09:30:38Z</time>
      </trkpt>
      <trkpt lat="42.720381" lon="0.570500">
        <ele>1703.2</ele>
        <time>2019-08-23T09:30:51Z</time>
      </trkpt>
      <trkpt lat="42.720313" lon="0.570379">
        <ele>1701.6</ele>
        <time>2019-08-23T09:31:02Z</time>
      </trkpt>
      <trkpt lat="42.720220" lon="0.570258">
        <ele>1699.8</ele>
        <time>2019-08-23T09:31:16Z</time>
      </trkpt>
      <trkpt lat="42.720142" lon="0.570166">
        <ele>1699.8</ele>
        <time>2019-08-23T09:31:27Z</time>
      </trkpt>
      <trkpt lat="42.720062" lon="0.570091">
        <ele>1700.7</ele>
        <time>2019-08-23T09:31:36Z</time>
      </trkpt>
      <trkpt lat="42.720003" lon="0.570006">
        <ele>1701.5</ele>
        <time>2019-08-23T09:31:46Z</time>
      </trkpt>
      <trkpt lat="42.719989" lon="0.569886">
        <ele>1701.7</ele>
        <time>2019-08-23T09:31:56Z</time>
      </trkpt>
      <trkpt lat="42.720014" lon="0.569741">
        <ele>1701.4</ele>
        <time>2019-08-23T09:32:06Z</time>
      </trkpt>
      <trkpt lat="42.720043" lon="0.569585">
        <ele>1701.2</ele>
        <time>2019-08-23T09:32:17Z</time>
      </trkpt>
      <trkpt lat="42.720047" lon="0.569461">
        <ele>1702.0</ele>
        <time>2019-08-23T09:32:27Z</time>
      </trkpt>
      <trkpt lat="42.720062" lon="0.569350">
        <ele>1702.1</ele>
        <time>2019-08-23T09:32:42Z</time>
      </trkpt>
      <trkpt lat="42.720092" lon="0.569220">
        <ele>1701.2</ele>
        <time>2019-08-23T09:32:54Z</time>
      </trkpt>
      <trkpt lat="42.720121" lon="0.569105">
        <ele>1701.1</ele>
        <time>2019-08-23T09:33:03Z</time>
      </trkpt>
      <trkpt lat="42.720145" lon="0.568980">
        <ele>1701.6</ele>
        <time>2019-08-23T09:33:12Z</time>
      </trkpt>
      <trkpt lat="42.720119" lon="0.568844">
        <ele>1702.0</ele>
        <time>2019-08-23T09:33:21Z</time>
      </trkpt>
      <trkpt lat="42.720113" lon="0.568688">
        <ele>1701.7</ele>
        <time>2019-08-23T09:33:32Z</time>
      </trkpt>
      <trkpt lat="42.720166" lon="0.568577">
        <ele>1701.6</ele>
        <time>2019-08-23T09:33:43Z</time>
      </trkpt>
      <trkpt lat="42.720271" lon="0.568548">
        <ele>1700.7</ele>
        <time>2019-08-23T09:33:55Z</time>
      </trkpt>
      <trkpt lat="42.720323" lon="0.568492">
        <ele>1700.7</ele>
        <time>2019-08-23T09:34:22Z</time>
      </trkpt>
      <trkpt lat="42.720378" lon="0.568390">
        <ele>1701.2</ele>
        <time>2019-08-23T09:34:40Z</time>
      </trkpt>
      <trkpt lat="42.720308" lon="0.568303">
        <ele>1700.2</ele>
        <time>2019-08-23T09:34:57Z</time>
      </trkpt>
      <trkpt lat="42.720376" lon="0.568265">
        <ele>1703.2</ele>
        <time>2019-08-23T09:35:15Z</time>
      </trkpt>
      <trkpt lat="42.720340" lon="0.568138">
        <ele>1704.3</ele>
        <time>2019-08-23T09:35:25Z</time>
      </trkpt>
      <trkpt lat="42.720327" lon="0.568009">
        <ele>1705.4</ele>
        <time>2019-08-23T09:35:35Z</time>
      </trkpt>
      <trkpt lat="42.720330" lon="0.567880">
        <ele>1707.6</ele>
        <time>2019-08-23T09:35:45Z</time>
      </trkpt>
      <trkpt lat="42.720323" lon="0.567753">
        <ele>1709.4</ele>
        <time>2019-08-23T09:35:57Z</time>
      </trkpt>
      <trkpt lat="42.720377" lon="0.567663">
        <ele>1709.9</ele>
        <time>2019-08-23T09:36:08Z</time>
      </trkpt>
      <trkpt lat="42.720412" lon="0.567529">
        <ele>1710.4</ele>
        <time>2019-08-23T09:36:18Z</time>
      </trkpt>
      <trkpt lat="42.720498" lon="0.567471">
        <ele>1712.0</ele>
        <time>2019-08-23T09:36:27Z</time>
      </trkpt>
      <trkpt lat="42.720533" lon="0.567322">
        <ele>1714.6</ele>
        <time>2019-08-23T09:36:39Z</time>
      </trkpt>
      <trkpt lat="42.720514" lon="0.567212">
        <ele>1715.8</ele>
        <time>2019-08-23T09:36:53Z</time>
      </trkpt>
      <trkpt lat="42.720566" lon="0.567095">
        <ele>1717.3</ele>
        <time>2019-08-23T09:37:03Z</time>
      </trkpt>
      <trkpt lat="42.720626" lon="0.566970">
        <ele>1719.0</ele>
        <time>2019-08-23T09:37:15Z</time>
      </trkpt>
      <trkpt lat="42.720685" lon="0.566868">
        <ele>1721.2</ele>
        <time>2019-08-23T09:37:25Z</time>
      </trkpt>
      <trkpt lat="42.720771" lon="0.566785">
        <ele>1722.9</ele>
        <time>2019-08-23T09:37:36Z</time>
      </trkpt>
      <trkpt lat="42.720811" lon="0.566641">
        <ele>1725.4</ele>
        <time>2019-08-23T09:37:48Z</time>
      </trkpt>
      <trkpt lat="42.720831" lon="0.566496">
        <ele>1726.9</ele>
        <time>2019-08-23T09:38:00Z</time>
      </trkpt>
      <trkpt lat="42.720847" lon="0.566359">
        <ele>1727.6</ele>
        <time>2019-08-23T09:38:11Z</time>
      </trkpt>
      <trkpt lat="42.720888" lon="0.566240">
        <ele>1728.2</ele>
        <time>2019-08-23T09:38:20Z</time>
      </trkpt>
      <trkpt lat="42.720887" lon="0.566101">
        <ele>1729.7</ele>
        <time>2019-08-23T09:38:30Z</time>
      </trkpt>
      <trkpt lat="42.720887" lon="0.565975">
        <ele>1732.1</ele>
        <time>2019-08-23T09:38:42Z</time>
      </trkpt>
      <trkpt lat="42.720930" lon="0.565831">
        <ele>1733.5</ele>
        <time>2019-08-23T09:38:54Z</time>
      </trkpt>
      <trkpt lat="42.720962" lon="0.565697">
        <ele>1734.4</ele>
        <time>2019-08-23T09:39:05Z</time>
      </trkpt>
      <trkpt lat="42.721001" lon="0.565563">
        <ele>1735.0</ele>
        <time>2019-08-23T09:39:16Z</time>
      </trkpt>
      <trkpt lat="42.721003" lon="0.565450">
        <ele>1734.7</ele>
        <time>2019-08-23T09:39:27Z</time>
      </trkpt>
      <trkpt lat="42.721029" lon="0.565337">
        <ele>1735.6</ele>
        <time>2019-08-23T09:39:36Z</time>
      </trkpt>
      <trkpt lat="42.721073" lon="0.565230">
        <ele>1735.7</ele>
        <time>2019-08-23T09:39:46Z</time>
      </trkpt>
      <trkpt lat="42.721076" lon="0.565113">
        <ele>1736.2</ele>
        <time>2019-08-23T09:39:54Z</time>
      </trkpt>
      <trkpt lat="42.721073" lon="0.564989">
        <ele>1737.5</ele>
        <time>2019-08-23T09:40:02Z</time>
      </trkpt>
      <trkpt lat="42.721093" lon="0.564860">
        <ele>1738.8</ele>
        <time>2019-08-23T09:40:11Z</time>
      </trkpt>
      <trkpt lat="42.721136" lon="0.564747">
        <ele>1740.1</ele>
        <time>2019-08-23T09:40:20Z</time>
      </trkpt>
      <trkpt lat="42.721174" lon="0.564634">
        <ele>1741.2</ele>
        <time>2019-08-23T09:40:29Z</time>
      </trkpt>
      <trkpt lat="42.721218" lon="0.564513">
        <ele>1742.3</ele>
        <time>2019-08-23T09:40:38Z</time>
      </trkpt>
      <trkpt lat="42.721236" lon="0.564385">
        <ele>1743.7</ele>
        <time>2019-08-23T09:40:47Z</time>
      </trkpt>
      <trkpt lat="42.721216" lon="0.564268">
        <ele>1744.5</ele>
        <time>2019-08-23T09:40:56Z</time>
      </trkpt>
      <trkpt lat="42.721214" lon="0.564147">
        <ele>1745.7</ele>
        <time>2019-08-23T09:41:05Z</time>
      </trkpt>
      <trkpt lat="42.721227" lon="0.564053">
        <ele>1747.0</ele>
        <time>2019-08-23T09:41:27Z</time>
      </trkpt>
      <trkpt lat="42.721220" lon="0.563935">
        <ele>1748.4</ele>
        <time>2019-08-23T09:41:36Z</time>
      </trkpt>
      <trkpt lat="42.721227" lon="0.563806">
        <ele>1750.3</ele>
        <time>2019-08-23T09:41:45Z</time>
      </trkpt>
      <trkpt lat="42.721207" lon="0.563675">
        <ele>1751.7</ele>
        <time>2019-08-23T09:41:54Z</time>
      </trkpt>
      <trkpt lat="42.721179" lon="0.563557">
        <ele>1753.5</ele>
        <time>2019-08-23T09:42:03Z</time>
      </trkpt>
      <trkpt lat="42.721133" lon="0.563453">
        <ele>1755.0</ele>
        <time>2019-08-23T09:42:12Z</time>
      </trkpt>
      <trkpt lat="42.721095" lon="0.563329">
        <ele>1756.9</ele>
        <time>2019-08-23T09:42:22Z</time>
      </trkpt>
      <trkpt lat="42.721035" lon="0.563201">
        <ele>1758.3</ele>
        <time>2019-08-23T09:42:44Z</time>
      </trkpt>
      <trkpt lat="42.720998" lon="0.563108">
        <ele>1761.1</ele>
        <time>2019-08-23T09:43:07Z</time>
      </trkpt>
      <trkpt lat="42.720981" lon="0.562968">
        <ele>1763.9</ele>
        <time>2019-08-23T09:43:18Z</time>
      </trkpt>
      <trkpt lat="42.720991" lon="0.562839">
        <ele>1768.2</ele>
        <time>2019-08-23T09:43:34Z</time>
      </trkpt>
      <trkpt lat="42.720941" lon="0.562742">
        <ele>1771.8</ele>
        <time>2019-08-23T09:43:45Z</time>
      </trkpt>
      <trkpt lat="42.720986" lon="0.562635">
        <ele>1774.9</ele>
        <time>2019-08-23T09:44:00Z</time>
      </trkpt>
      <trkpt lat="42.721080" lon="0.562641">
        <ele>1778.7</ele>
        <time>2019-08-23T09:44:15Z</time>
      </trkpt>
      <trkpt lat="42.721146" lon="0.562737">
        <ele>1781.3</ele>
        <time>2019-08-23T09:44:29Z</time>
      </trkpt>
      <trkpt lat="42.721220" lon="0.562679">
        <ele>1784.8</ele>
        <time>2019-08-23T09:44:42Z</time>
      </trkpt>
      <trkpt lat="42.721270" lon="0.562615">
        <ele>1788.9</ele>
        <time>2019-08-23T09:44:59Z</time>
      </trkpt>
      <trkpt lat="42.721343" lon="0.562671">
        <ele>1792.1</ele>
        <time>2019-08-23T09:45:10Z</time>
      </trkpt>
      <trkpt lat="42.721430" lon="0.562671">
        <ele>1795.3</ele>
        <time>2019-08-23T09:45:21Z</time>
      </trkpt>
      <trkpt lat="42.721527" lon="0.562729">
        <ele>1798.3</ele>
        <time>2019-08-23T09:45:32Z</time>
      </trkpt>
      <trkpt lat="42.721602" lon="0.562641">
        <ele>1802.1</ele>
        <time>2019-08-23T09:45:47Z</time>
      </trkpt>
      <trkpt lat="42.721683" lon="0.562561">
        <ele>1805.0</ele>
        <time>2019-08-23T09:45:58Z</time>
      </trkpt>
      <trkpt lat="42.721743" lon="0.562461">
        <ele>1805.6</ele>
        <time>2019-08-23T09:46:09Z</time>
      </trkpt>
      <trkpt lat="42.721774" lon="0.562346">
        <ele>1806.0</ele>
        <time>2019-08-23T09:46:18Z</time>
      </trkpt>
      <trkpt lat="42.721795" lon="0.562210">
        <ele>1807.1</ele>
        <time>2019-08-23T09:46:26Z</time>
      </trkpt>
      <trkpt lat="42.721809" lon="0.562079">
        <ele>1807.8</ele>
        <time>2019-08-23T09:46:36Z</time>
      </trkpt>
      <trkpt lat="42.721887" lon="0.561971">
        <ele>1809.0</ele>
        <time>2019-08-23T09:46:44Z</time>
      </trkpt>
      <trkpt lat="42.721954" lon="0.561885">
        <ele>1811.0</ele>
        <time>2019-08-23T09:46:52Z</time>
      </trkpt>
      <trkpt lat="42.721985" lon="0.561757">
        <ele>1813.7</ele>
        <time>2019-08-23T09:47:02Z</time>
      </trkpt>
      <trkpt lat="42.722037" lon="0.561655">
        <ele>1815.2</ele>
        <time>2019-08-23T09:47:10Z</time>
      </trkpt>
      <trkpt lat="42.722079" lon="0.561516">
        <ele>1816.7</ele>
        <time>2019-08-23T09:47:21Z</time>
      </trkpt>
      <trkpt lat="42.722104" lon="0.561374">
        <ele>1818.4</ele>
        <time>2019-08-23T09:47:30Z</time>
      </trkpt>
      <trkpt lat="42.722153" lon="0.561247">
        <ele>1820.4</ele>
        <time>2019-08-23T09:47:40Z</time>
      </trkpt>
      <trkpt lat="42.722167" lon="0.561106">
        <ele>1822.6</ele>
        <time>2019-08-23T09:47:53Z</time>
      </trkpt>
      <trkpt lat="42.722178" lon="0.560961">
        <ele>1824.0</ele>
        <time>2019-08-23T09:48:04Z</time>
      </trkpt>
      <trkpt lat="42.722217" lon="0.560828">
        <ele>1825.3</ele>
        <time>2019-08-23T09:48:14Z</time>
      </trkpt>
      <trkpt lat="42.722260" lon="0.560689">
        <ele>1826.6</ele>
        <time>2019-08-23T09:48:27Z</time>
      </trkpt>
      <trkpt lat="42.722379" lon="0.560617">
        <ele>1827.0</ele>
        <time>2019-08-23T09:48:38Z</time>
      </trkpt>
      <trkpt lat="42.722466" lon="0.560527">
        <ele>1828.1</ele>
        <time>2019-08-23T09:48:48Z</time>
      </trkpt>
      <trkpt lat="42.722537" lon="0.560429">
        <ele>1829.3</ele>
        <time>2019-08-23T09:48:57Z</time>
      </trkpt>
      <trkpt lat="42.722627" lon="0.560339">
        <ele>1830.7</ele>
        <time>2019-08-23T09:49:06Z</time>
      </trkpt>
      <trkpt lat="42.722692" lon="0.560227">
        <ele>1832.3</ele>
        <time>2019-08-23T09:49:14Z</time>
      </trkpt>
      <trkpt lat="42.722758" lon="0.560102">
        <ele>1835.0</ele>
        <time>2019-08-23T09:49:25Z</time>
      </trkpt>
      <trkpt lat="42.722814" lon="0.559984">
        <ele>1837.7</ele>
        <time>2019-08-23T09:49:34Z</time>
      </trkpt>
      <trkpt lat="42.722864" lon="0.559859">
        <ele>1840.2</ele>
        <time>2019-08-23T09:49:42Z</time>
      </trkpt>
      <trkpt lat="42.722890" lon="0.559726">
        <ele>1842.8</ele>
        <time>2019-08-23T09:49:52Z</time>
      </trkpt>
      <trkpt lat="42.722927" lon="0.559591">
        <ele>1843.8</ele>
        <time>2019-08-23T09:50:02Z</time>
      </trkpt>
      <trkpt lat="42.722988" lon="0.559477">
        <ele>1844.3</ele>
        <time>2019-08-23T09:50:11Z</time>
      </trkpt>
      <trkpt lat="42.723053" lon="0.559358">
        <ele>1845.7</ele>
        <time>2019-08-23T09:50:20Z</time>
      </trkpt>
      <trkpt lat="42.723120" lon="0.559273">
        <ele>1847.9</ele>
        <time>2019-08-23T09:50:28Z</time>
      </trkpt>
      <trkpt lat="42.723212" lon="0.559192">
        <ele>1850.9</ele>
        <time>2019-08-23T09:50:39Z</time>
      </trkpt>
      <trkpt lat="42.723165" lon="0.559147">
        <ele>1853.7</ele>
        <time>2019-08-23T09:50:51Z</time>
      </trkpt>
      <trkpt lat="42.723208" lon="0.559061">
        <ele>1856.9</ele>
        <time>2019-08-23T09:51:02Z</time>
      </trkpt>
      <trkpt lat="42.723260" lon="0.558927">
        <ele>1859.6</ele>
        <time>2019-08-23T09:51:13Z</time>
      </trkpt>
      <trkpt lat="42.723342" lon="0.558836">
        <ele>1861.4</ele>
        <time>2019-08-23T09:51:23Z</time>
      </trkpt>
      <trkpt lat="42.723377" lon="0.558697">
        <ele>1863.6</ele>
        <time>2019-08-23T09:51:32Z</time>
      </trkpt>
      <trkpt lat="42.723402" lon="0.558564">
        <ele>1866.0</ele>
        <time>2019-08-23T09:51:42Z</time>
      </trkpt>
      <trkpt lat="42.723417" lon="0.558425">
        <ele>1868.8</ele>
        <time>2019-08-23T09:51:52Z</time>
      </trkpt>
      <trkpt lat="42.723455" lon="0.558291">
        <ele>1870.6</ele>
        <time>2019-08-23T09:52:02Z</time>
      </trkpt>
      <trkpt lat="42.723488" lon="0.558154">
        <ele>1872.1</ele>
        <time>2019-08-23T09:52:10Z</time>
      </trkpt>
      <trkpt lat="42.723491" lon="0.558015">
        <ele>1874.7</ele>
        <time>2019-08-23T09:52:19Z</time>
      </trkpt>
      <trkpt lat="42.723544" lon="0.557891">
        <ele>1876.8</ele>
        <time>2019-08-23T09:52:29Z</time>
      </trkpt>
      <trkpt lat="42.723563" lon="0.557747">
        <ele>1879.1</ele>
        <time>2019-08-23T09:52:37Z</time>
      </trkpt>
      <trkpt lat="42.723588" lon="0.557618">
        <ele>1882.7</ele>
        <time>2019-08-23T09:52:49Z</time>
      </trkpt>
      <trkpt lat="42.723631" lon="0.557483">
        <ele>1885.4</ele>
        <time>2019-08-23T09:52:59Z</time>
      </trkpt>
      <trkpt lat="42.723680" lon="0.557358">
        <ele>1888.1</ele>
        <time>2019-08-23T09:53:11Z</time>
      </trkpt>
      <trkpt lat="42.723740" lon="0.557240">
        <ele>1889.9</ele>
        <time>2019-08-23T09:53:20Z</time>
      </trkpt>
      <trkpt lat="42.723761" lon="0.557101">
        <ele>1892.4</ele>
        <time>2019-08-23T09:53:30Z</time>
      </trkpt>
      <trkpt lat="42.723778" lon="0.556965">
        <ele>1895.5</ele>
        <time>2019-08-23T09:53:40Z</time>
      </trkpt>
      <trkpt lat="42.723760" lon="0.556836">
        <ele>1897.9</ele>
        <time>2019-08-23T09:53:48Z</time>
      </trkpt>
      <trkpt lat="42.723721" lon="0.556756">
        <ele>1900.4</ele>
        <time>2019-08-23T09:53:59Z</time>
      </trkpt>
      <trkpt lat="42.723667" lon="0.556867">
        <ele>1902.0</ele>
        <time>2019-08-23T09:54:08Z</time>
      </trkpt>
      <trkpt lat="42.723604" lon="0.556965">
        <ele>1903.9</ele>
        <time>2019-08-23T09:54:17Z</time>
      </trkpt>
      <trkpt lat="42.723526" lon="0.557035">
        <ele>1906.2</ele>
        <time>2019-08-23T09:54:27Z</time>
      </trkpt>
      <trkpt lat="42.723469" lon="0.557015">
        <ele>1908.3</ele>
        <time>2019-08-23T09:54:38Z</time>
      </trkpt>
      <trkpt lat="42.723380" lon="0.556969">
        <ele>1908.3</ele>
        <time>2019-08-23T09:54:50Z</time>
      </trkpt>
      <trkpt lat="42.723330" lon="0.556867">
        <ele>1907.6</ele>
        <time>2019-08-23T09:54:58Z</time>
      </trkpt>
      <trkpt lat="42.723281" lon="0.556750">
        <ele>1907.2</ele>
        <time>2019-08-23T09:55:06Z</time>
      </trkpt>
      <trkpt lat="42.723238" lon="0.556638">
        <ele>1906.9</ele>
        <time>2019-08-23T09:55:14Z</time>
      </trkpt>
      <trkpt lat="42.723219" lon="0.556507">
        <ele>1906.5</ele>
        <time>2019-08-23T09:55:22Z</time>
      </trkpt>
      <trkpt lat="42.723229" lon="0.556363">
        <ele>1906.3</ele>
        <time>2019-08-23T09:55:32Z</time>
      </trkpt>
      <trkpt lat="42.723213" lon="0.556246">
        <ele>1906.1</ele>
        <time>2019-08-23T09:55:41Z</time>
      </trkpt>
      <trkpt lat="42.723158" lon="0.556149">
        <ele>1905.7</ele>
        <time>2019-08-23T09:55:49Z</time>
      </trkpt>
      <trkpt lat="42.723134" lon="0.556034">
        <ele>1904.4</ele>
        <time>2019-08-23T09:55:59Z</time>
      </trkpt>
      <trkpt lat="42.723101" lon="0.555921">
        <ele>1903.5</ele>
        <time>2019-08-23T09:56:07Z</time>
      </trkpt>
      <trkpt lat="42.723065" lon="0.555807">
        <ele>1903.4</ele>
        <time>2019-08-23T09:56:14Z</time>
      </trkpt>
      <trkpt lat="42.723044" lon="0.555686">
        <ele>1903.3</ele>
        <time>2019-08-23T09:56:22Z</time>
      </trkpt>
      <trkpt lat="42.723031" lon="0.555566">
        <ele>1904.6</ele>
        <time>2019-08-23T09:56:35Z</time>
      </trkpt>
      <trkpt lat="42.722965" lon="0.555491">
        <ele>1906.7</ele>
        <time>2019-08-23T09:56:44Z</time>
      </trkpt>
      <trkpt lat="42.722917" lon="0.555376">
        <ele>1908.9</ele>
        <time>2019-08-23T09:56:52Z</time>
      </trkpt>
      <trkpt lat="42.722822" lon="0.555319">
        <ele>1911.6</ele>
        <time>2019-08-23T09:57:00Z</time>
      </trkpt>
      <trkpt lat="42.722729" lon="0.555295">
        <ele>1914.2</ele>
        <time>2019-08-23T09:57:10Z</time>
      </trkpt>
      <trkpt lat="42.722695" lon="0.555292">
        <ele>1917.0</ele>
        <time>2019-08-23T09:57:20Z</time>
      </trkpt>
      <trkpt lat="42.722659" lon="0.555196">
        <ele>1919.2</ele>
        <time>2019-08-23T09:57:30Z</time>
      </trkpt>
      <trkpt lat="42.722648" lon="0.555108">
        <ele>1922.2</ele>
        <time>2019-08-23T09:57:44Z</time>
      </trkpt>
      <trkpt lat="42.722609" lon="0.555015">
        <ele>1925.0</ele>
        <time>2019-08-23T09:57:55Z</time>
      </trkpt>
      <trkpt lat="42.722616" lon="0.554890">
        <ele>1927.5</ele>
        <time>2019-08-23T09:58:06Z</time>
      </trkpt>
      <trkpt lat="42.722661" lon="0.554784">
        <ele>1930.2</ele>
        <time>2019-08-23T09:58:17Z</time>
      </trkpt>
      <trkpt lat="42.722621" lon="0.554698">
        <ele>1933.8</ele>
        <time>2019-08-23T09:58:32Z</time>
      </trkpt>
      <trkpt lat="42.722560" lon="0.554725">
        <ele>1936.8</ele>
        <time>2019-08-23T09:58:44Z</time>
      </trkpt>
      <trkpt lat="42.722516" lon="0.554623">
        <ele>1938.5</ele>
        <time>2019-08-23T09:58:59Z</time>
      </trkpt>
      <trkpt lat="42.722428" lon="0.554576">
        <ele>1940.5</ele>
        <time>2019-08-23T09:59:07Z</time>
      </trkpt>
      <trkpt lat="42.722322" lon="0.554577">
        <ele>1942.6</ele>
        <time>2019-08-23T09:59:16Z</time>
      </trkpt>
      <trkpt lat="42.722251" lon="0.554652">
        <ele>1943.8</ele>
        <time>2019-08-23T09:59:26Z</time>
      </trkpt>
      <trkpt lat="42.722201" lon="0.554766">
        <ele>1946.4</ele>
        <time>2019-08-23T09:59:36Z</time>
      </trkpt>
      <trkpt lat="42.722149" lon="0.554876">
        <ele>1948.4</ele>
        <time>2019-08-23T09:59:47Z</time>
      </trkpt>
      <trkpt lat="42.722095" lon="0.554986">
        <ele>1949.9</ele>
        <time>2019-08-23T09:59:58Z</time>
      </trkpt>
      <trkpt lat="42.722029" lon="0.555067">
        <ele>1950.9</ele>
        <time>2019-08-23T10:00:07Z</time>
      </trkpt>
      <trkpt lat="42.721991" lon="0.555191">
        <ele>1953.8</ele>
        <time>2019-08-23T10:00:19Z</time>
      </trkpt>
      <trkpt lat="42.721921" lon="0.555269">
        <ele>1956.3</ele>
        <time>2019-08-23T10:00:34Z</time>
      </trkpt>
      <trkpt lat="42.721870" lon="0.555367">
        <ele>1957.5</ele>
        <time>2019-08-23T10:01:56Z</time>
      </trkpt>
      <trkpt lat="42.721808" lon="0.555409">
        <ele>1959.7</ele>
        <time>2019-08-23T10:02:15Z</time>
      </trkpt>
      <trkpt lat="42.721800" lon="0.555314">
        <ele>1963.2</ele>
        <time>2019-08-23T10:02:58Z</time>
      </trkpt>
      <trkpt lat="42.721796" lon="0.555180">
        <ele>1965.2</ele>
        <time>2019-08-23T10:03:06Z</time>
      </trkpt>
      <trkpt lat="42.721791" lon="0.555049">
        <ele>1967.5</ele>
        <time>2019-08-23T10:03:16Z</time>
      </trkpt>
      <trkpt lat="42.721818" lon="0.554933">
        <ele>1969.0</ele>
        <time>2019-08-23T10:03:24Z</time>
      </trkpt>
      <trkpt lat="42.721836" lon="0.554806">
        <ele>1970.9</ele>
        <time>2019-08-23T10:03:35Z</time>
      </trkpt>
      <trkpt lat="42.721884" lon="0.554693">
        <ele>1972.6</ele>
        <time>2019-08-23T10:03:44Z</time>
      </trkpt>
      <trkpt lat="42.721886" lon="0.554566">
        <ele>1973.5</ele>
        <time>2019-08-23T10:03:58Z</time>
      </trkpt>
      <trkpt lat="42.721929" lon="0.554465">
        <ele>1973.9</ele>
        <time>2019-08-23T10:04:08Z</time>
      </trkpt>
      <trkpt lat="42.721961" lon="0.554353">
        <ele>1973.6</ele>
        <time>2019-08-23T10:04:20Z</time>
      </trkpt>
      <trkpt lat="42.721985" lon="0.554239">
        <ele>1974.4</ele>
        <time>2019-08-23T10:04:30Z</time>
      </trkpt>
      <trkpt lat="42.721979" lon="0.554114">
        <ele>1975.4</ele>
        <time>2019-08-23T10:04:38Z</time>
      </trkpt>
      <trkpt lat="42.722026" lon="0.554011">
        <ele>1975.7</ele>
        <time>2019-08-23T10:04:46Z</time>
      </trkpt>
      <trkpt lat="42.722067" lon="0.553894">
        <ele>1976.6</ele>
        <time>2019-08-23T10:04:55Z</time>
      </trkpt>
      <trkpt lat="42.722079" lon="0.553772">
        <ele>1978.8</ele>
        <time>2019-08-23T10:05:04Z</time>
      </trkpt>
      <trkpt lat="42.722047" lon="0.553665">
        <ele>1981.4</ele>
        <time>2019-08-23T10:05:15Z</time>
      </trkpt>
      <trkpt lat="42.721974" lon="0.553562">
        <ele>1983.8</ele>
        <time>2019-08-23T10:05:26Z</time>
      </trkpt>
      <trkpt lat="42.721933" lon="0.553456">
        <ele>1986.1</ele>
        <time>2019-08-23T10:05:35Z</time>
      </trkpt>
      <trkpt lat="42.721875" lon="0.553351">
        <ele>1989.4</ele>
        <time>2019-08-23T10:05:46Z</time>
      </trkpt>
      <trkpt lat="42.721827" lon="0.553238">
        <ele>1991.3</ele>
        <time>2019-08-23T10:05:56Z</time>
      </trkpt>
      <trkpt lat="42.721813" lon="0.553106">
        <ele>1993.6</ele>
        <time>2019-08-23T10:06:06Z</time>
      </trkpt>
      <trkpt lat="42.721728" lon="0.553048">
        <ele>1995.6</ele>
        <time>2019-08-23T10:06:15Z</time>
      </trkpt>
      <trkpt lat="42.721695" lon="0.553169">
        <ele>1998.6</ele>
        <time>2019-08-23T10:06:27Z</time>
      </trkpt>
      <trkpt lat="42.721669" lon="0.553297">
        <ele>2000.8</ele>
        <time>2019-08-23T10:06:39Z</time>
      </trkpt>
      <trkpt lat="42.721650" lon="0.553428">
        <ele>2002.3</ele>
        <time>2019-08-23T10:06:49Z</time>
      </trkpt>
      <trkpt lat="42.721621" lon="0.553553">
        <ele>2004.7</ele>
        <time>2019-08-23T10:07:00Z</time>
      </trkpt>
      <trkpt lat="42.721605" lon="0.553671">
        <ele>2006.9</ele>
        <time>2019-08-23T10:07:11Z</time>
      </trkpt>
      <trkpt lat="42.721562" lon="0.553766">
        <ele>2009.4</ele>
        <time>2019-08-23T10:07:22Z</time>
      </trkpt>
      <trkpt lat="42.721498" lon="0.553850">
        <ele>2011.2</ele>
        <time>2019-08-23T10:07:31Z</time>
      </trkpt>
      <trkpt lat="42.721443" lon="0.553959">
        <ele>2013.6</ele>
        <time>2019-08-23T10:07:44Z</time>
      </trkpt>
      <trkpt lat="42.721401" lon="0.554067">
        <ele>2015.5</ele>
        <time>2019-08-23T10:07:57Z</time>
      </trkpt>
      <trkpt lat="42.721327" lon="0.554154">
        <ele>2016.6</ele>
        <time>2019-08-23T10:08:16Z</time>
      </trkpt>
      <trkpt lat="42.721329" lon="0.554045">
        <ele>2019.6</ele>
        <time>2019-08-23T10:08:42Z</time>
      </trkpt>
      <trkpt lat="42.721316" lon="0.553931">
        <ele>2022.7</ele>
        <time>2019-08-23T10:08:54Z</time>
      </trkpt>
      <trkpt lat="42.721270" lon="0.553862">
        <ele>2026.3</ele>
        <time>2019-08-23T10:09:11Z</time>
      </trkpt>
      <trkpt lat="42.721262" lon="0.553737">
        <ele>2028.7</ele>
        <time>2019-08-23T10:09:22Z</time>
      </trkpt>
      <trkpt lat="42.721204" lon="0.553790">
        <ele>2031.0</ele>
        <time>2019-08-23T10:09:32Z</time>
      </trkpt>
      <trkpt lat="42.721136" lon="0.553878">
        <ele>2032.0</ele>
        <time>2019-08-23T10:09:40Z</time>
      </trkpt>
      <trkpt lat="42.721067" lon="0.553950">
        <ele>2033.4</ele>
        <time>2019-08-23T10:09:50Z</time>
      </trkpt>
      <trkpt lat="42.720992" lon="0.554002">
        <ele>2035.2</ele>
        <time>2019-08-23T10:09:59Z</time>
      </trkpt>
      <trkpt lat="42.720934" lon="0.554046">
        <ele>2037.0</ele>
        <time>2019-08-23T10:10:09Z</time>
      </trkpt>
      <trkpt lat="42.720874" lon="0.554124">
        <ele>2038.4</ele>
        <time>2019-08-23T10:10:18Z</time>
      </trkpt>
      <trkpt lat="42.720846" lon="0.554244">
        <ele>2039.9</ele>
        <time>2019-08-23T10:10:26Z</time>
      </trkpt>
      <trkpt lat="42.720806" lon="0.554362">
        <ele>2041.2</ele>
        <time>2019-08-23T10:10:36Z</time>
      </trkpt>
      <trkpt lat="42.720727" lon="0.554431">
        <ele>2043.4</ele>
        <time>2019-08-23T10:10:50Z</time>
      </trkpt>
      <trkpt lat="42.720650" lon="0.554502">
        <ele>2045.4</ele>
        <time>2019-08-23T10:11:01Z</time>
      </trkpt>
      <trkpt lat="42.720599" lon="0.554621">
        <ele>2047.1</ele>
        <time>2019-08-23T10:11:10Z</time>
      </trkpt>
      <trkpt lat="42.720548" lon="0.554738">
        <ele>2049.6</ele>
        <time>2019-08-23T10:11:20Z</time>
      </trkpt>
      <trkpt lat="42.720506" lon="0.554847">
        <ele>2051.9</ele>
        <time>2019-08-23T10:11:29Z</time>
      </trkpt>
      <trkpt lat="42.720448" lon="0.554808">
        <ele>2054.8</ele>
        <time>2019-08-23T10:11:40Z</time>
      </trkpt>
      <trkpt lat="42.720453" lon="0.554678">
        <ele>2056.8</ele>
        <time>2019-08-23T10:11:51Z</time>
      </trkpt>
      <trkpt lat="42.720456" lon="0.554555">
        <ele>2059.3</ele>
        <time>2019-08-23T10:12:02Z</time>
      </trkpt>
      <trkpt lat="42.720428" lon="0.554440">
        <ele>2062.1</ele>
        <time>2019-08-23T10:12:12Z</time>
      </trkpt>
      <trkpt lat="42.720368" lon="0.554439">
        <ele>2064.7</ele>
        <time>2019-08-23T10:12:22Z</time>
      </trkpt>
      <trkpt lat="42.720309" lon="0.554525">
        <ele>2068.2</ele>
        <time>2019-08-23T10:12:34Z</time>
      </trkpt>
      <trkpt lat="42.720284" lon="0.554636">
        <ele>2069.9</ele>
        <time>2019-08-23T10:12:46Z</time>
      </trkpt>
      <trkpt lat="42.720226" lon="0.554732">
        <ele>2071.1</ele>
        <time>2019-08-23T10:12:56Z</time>
      </trkpt>
      <trkpt lat="42.720185" lon="0.554848">
        <ele>2072.2</ele>
        <time>2019-08-23T10:13:06Z</time>
      </trkpt>
      <trkpt lat="42.720148" lon="0.554978">
        <ele>2073.6</ele>
        <time>2019-08-23T10:13:16Z</time>
      </trkpt>
      <trkpt lat="42.720113" lon="0.555096">
        <ele>2074.6</ele>
        <time>2019-08-23T10:13:25Z</time>
      </trkpt>
      <trkpt lat="42.720100" lon="0.554986">
        <ele>2076.0</ele>
        <time>2019-08-23T10:13:35Z</time>
      </trkpt>
      <trkpt lat="42.720097" lon="0.554907">
        <ele>2078.4</ele>
        <time>2019-08-23T10:13:45Z</time>
      </trkpt>
      <trkpt lat="42.720045" lon="0.555006">
        <ele>2079.8</ele>
        <time>2019-08-23T10:13:55Z</time>
      </trkpt>
      <trkpt lat="42.719999" lon="0.555124">
        <ele>2080.9</ele>
        <time>2019-08-23T10:14:04Z</time>
      </trkpt>
      <trkpt lat="42.719950" lon="0.555236">
        <ele>2082.3</ele>
        <time>2019-08-23T10:14:13Z</time>
      </trkpt>
      <trkpt lat="42.719892" lon="0.555334">
        <ele>2083.2</ele>
        <time>2019-08-23T10:14:22Z</time>
      </trkpt>
      <trkpt lat="42.719830" lon="0.555431">
        <ele>2084.1</ele>
        <time>2019-08-23T10:14:31Z</time>
      </trkpt>
      <trkpt lat="42.719765" lon="0.555448">
        <ele>2086.3</ele>
        <time>2019-08-23T10:14:41Z</time>
      </trkpt>
      <trkpt lat="42.719810" lon="0.555334">
        <ele>2087.6</ele>
        <time>2019-08-23T10:14:51Z</time>
      </trkpt>
      <trkpt lat="42.719832" lon="0.555202">
        <ele>2088.7</ele>
        <time>2019-08-23T10:15:00Z</time>
      </trkpt>
      <trkpt lat="42.719841" lon="0.555071">
        <ele>2090.6</ele>
        <time>2019-08-23T10:15:08Z</time>
      </trkpt>
      <trkpt lat="42.719860" lon="0.554957">
        <ele>2092.1</ele>
        <time>2019-08-23T10:15:16Z</time>
      </trkpt>
      <trkpt lat="42.719871" lon="0.554822">
        <ele>2094.4</ele>
        <time>2019-08-23T10:15:24Z</time>
      </trkpt>
      <trkpt lat="42.719881" lon="0.554692">
        <ele>2096.7</ele>
        <time>2019-08-23T10:15:32Z</time>
      </trkpt>
      <trkpt lat="42.719895" lon="0.554575">
        <ele>2098.6</ele>
        <time>2019-08-23T10:15:41Z</time>
      </trkpt>
      <trkpt lat="42.719867" lon="0.554457">
        <ele>2100.3</ele>
        <time>2019-08-23T10:15:50Z</time>
      </trkpt>
      <trkpt lat="42.719813" lon="0.554428">
        <ele>2102.4</ele>
        <time>2019-08-23T10:16:00Z</time>
      </trkpt>
      <trkpt lat="42.719786" lon="0.554538">
        <ele>2104.4</ele>
        <time>2019-08-23T10:16:10Z</time>
      </trkpt>
      <trkpt lat="42.719730" lon="0.554635">
        <ele>2106.3</ele>
        <time>2019-08-23T10:16:20Z</time>
      </trkpt>
      <trkpt lat="42.719678" lon="0.554742">
        <ele>2108.0</ele>
        <time>2019-08-23T10:16:30Z</time>
      </trkpt>
      <trkpt lat="42.719627" lon="0.554850">
        <ele>2109.7</ele>
        <time>2019-08-23T10:16:40Z</time>
      </trkpt>
      <trkpt lat="42.719566" lon="0.554952">
        <ele>2111.3</ele>
        <time>2019-08-23T10:16:49Z</time>
      </trkpt>
      <trkpt lat="42.719512" lon="0.555050">
        <ele>2113.2</ele>
        <time>2019-08-23T10:16:57Z</time>
      </trkpt>
      <trkpt lat="42.719451" lon="0.555141">
        <ele>2115.1</ele>
        <time>2019-08-23T10:17:06Z</time>
      </trkpt>
      <trkpt lat="42.719400" lon="0.555236">
        <ele>2116.7</ele>
        <time>2019-08-23T10:17:15Z</time>
      </trkpt>
      <trkpt lat="42.719333" lon="0.555328">
        <ele>2118.2</ele>
        <time>2019-08-23T10:17:23Z</time>
      </trkpt>
      <trkpt lat="42.719296" lon="0.555329">
        <ele>2119.5</ele>
        <time>2019-08-23T10:17:32Z</time>
      </trkpt>
      <trkpt lat="42.719306" lon="0.555199">
        <ele>2121.3</ele>
        <time>2019-08-23T10:17:40Z</time>
      </trkpt>
      <trkpt lat="42.719306" lon="0.555072">
        <ele>2122.6</ele>
        <time>2019-08-23T10:17:48Z</time>
      </trkpt>
      <trkpt lat="42.719307" lon="0.554944">
        <ele>2124.4</ele>
        <time>2019-08-23T10:17:56Z</time>
      </trkpt>
      <trkpt lat="42.719318" lon="0.554821">
        <ele>2126.1</ele>
        <time>2019-08-23T10:18:05Z</time>
      </trkpt>
      <trkpt lat="42.719324" lon="0.554690">
        <ele>2127.8</ele>
        <time>2019-08-23T10:18:13Z</time>
      </trkpt>
      <trkpt lat="42.719373" lon="0.554570">
        <ele>2129.2</ele>
        <time>2019-08-23T10:18:22Z</time>
      </trkpt>
      <trkpt lat="42.719365" lon="0.554433">
        <ele>2130.6</ele>
        <time>2019-08-23T10:18:30Z</time>
      </trkpt>
      <trkpt lat="42.719367" lon="0.554294">
        <ele>2132.8</ele>
        <time>2019-08-23T10:18:40Z</time>
      </trkpt>
      <trkpt lat="42.719382" lon="0.554162">
        <ele>2135.3</ele>
        <time>2019-08-23T10:18:50Z</time>
      </trkpt>
      <trkpt lat="42.719382" lon="0.554030">
        <ele>2137.6</ele>
        <time>2019-08-23T10:19:02Z</time>
      </trkpt>
      <trkpt lat="42.719391" lon="0.553902">
        <ele>2138.9</ele>
        <time>2019-08-23T10:19:12Z</time>
      </trkpt>
      <trkpt lat="42.719386" lon="0.553779">
        <ele>2141.2</ele>
        <time>2019-08-23T10:19:22Z</time>
      </trkpt>
      <trkpt lat="42.719343" lon="0.553817">
        <ele>2143.3</ele>
        <time>2019-08-23T10:19:32Z</time>
      </trkpt>
      <trkpt lat="42.719280" lon="0.553925">
        <ele>2145.4</ele>
        <time>2019-08-23T10:19:42Z</time>
      </trkpt>
      <trkpt lat="42.719223" lon="0.554051">
        <ele>2145.2</ele>
        <time>2019-08-23T10:19:54Z</time>
      </trkpt>
      <trkpt lat="42.719195" lon="0.554183">
        <ele>2145.5</ele>
        <time>2019-08-23T10:20:03Z</time>
      </trkpt>
      <trkpt lat="42.719132" lon="0.554316">
        <ele>2146.9</ele>
        <time>2019-08-23T10:20:21Z</time>
      </trkpt>
      <trkpt lat="42.719084" lon="0.554427">
        <ele>2147.7</ele>
        <time>2019-08-23T10:20:30Z</time>
      </trkpt>
      <trkpt lat="42.719049" lon="0.554554">
        <ele>2147.8</ele>
        <time>2019-08-23T10:20:40Z</time>
      </trkpt>
      <trkpt lat="42.719059" lon="0.554680">
        <ele>2147.7</ele>
        <time>2019-08-23T10:20:49Z</time>
      </trkpt>
      <trkpt lat="42.719007" lon="0.554779">
        <ele>2147.7</ele>
        <time>2019-08-23T10:20:58Z</time>
      </trkpt>
      <trkpt lat="42.718963" lon="0.554899">
        <ele>2148.1</ele>
        <time>2019-08-23T10:21:07Z</time>
      </trkpt>
      <trkpt lat="42.718886" lon="0.554980">
        <ele>2148.5</ele>
        <time>2019-08-23T10:21:16Z</time>
      </trkpt>
      <trkpt lat="42.718839" lon="0.555102">
        <ele>2149.1</ele>
        <time>2019-08-23T10:21:27Z</time>
      </trkpt>
      <trkpt lat="42.718792" lon="0.555215">
        <ele>2151.0</ele>
        <time>2019-08-23T10:21:37Z</time>
      </trkpt>
      <trkpt lat="42.718792" lon="0.555114">
        <ele>2153.3</ele>
        <time>2019-08-23T10:21:47Z</time>
      </trkpt>
      <trkpt lat="42.718809" lon="0.554990">
        <ele>2155.2</ele>
        <time>2019-08-23T10:21:59Z</time>
      </trkpt>
      <trkpt lat="42.718820" lon="0.554869">
        <ele>2157.8</ele>
        <time>2019-08-23T10:22:10Z</time>
      </trkpt>
      <trkpt lat="42.718818" lon="0.554747">
        <ele>2159.7</ele>
        <time>2019-08-23T10:22:21Z</time>
      </trkpt>
      <trkpt lat="42.718836" lon="0.554616">
        <ele>2161.4</ele>
        <time>2019-08-23T10:22:30Z</time>
      </trkpt>
      <trkpt lat="42.718857" lon="0.554497">
        <ele>2163.7</ele>
        <time>2019-08-23T10:22:39Z</time>
      </trkpt>
      <trkpt lat="42.718866" lon="0.554382">
        <ele>2166.4</ele>
        <time>2019-08-23T10:22:50Z</time>
      </trkpt>
      <trkpt lat="42.718859" lon="0.554254">
        <ele>2169.0</ele>
        <time>2019-08-23T10:23:00Z</time>
      </trkpt>
      <trkpt lat="42.718821" lon="0.554143">
        <ele>2171.1</ele>
        <time>2019-08-23T10:23:09Z</time>
      </trkpt>
      <trkpt lat="42.718815" lon="0.554007">
        <ele>2173.9</ele>
        <time>2019-08-23T10:23:19Z</time>
      </trkpt>
      <trkpt lat="42.718748" lon="0.554046">
        <ele>2175.9</ele>
        <time>2019-08-23T10:23:28Z</time>
      </trkpt>
      <trkpt lat="42.718698" lon="0.554153">
        <ele>2178.3</ele>
        <time>2019-08-23T10:23:37Z</time>
      </trkpt>
      <trkpt lat="42.718626" lon="0.554244">
        <ele>2180.8</ele>
        <time>2019-08-23T10:23:48Z</time>
      </trkpt>
      <trkpt lat="42.718555" lon="0.554331">
        <ele>2183.5</ele>
        <time>2019-08-23T10:23:58Z</time>
      </trkpt>
      <trkpt lat="42.718483" lon="0.554405">
        <ele>2185.7</ele>
        <time>2019-08-23T10:24:06Z</time>
      </trkpt>
      <trkpt lat="42.718448" lon="0.554381">
        <ele>2187.9</ele>
        <time>2019-08-23T10:24:16Z</time>
      </trkpt>
      <trkpt lat="42.718452" lon="0.554262">
        <ele>2190.3</ele>
        <time>2019-08-23T10:24:25Z</time>
      </trkpt>
      <trkpt lat="42.718468" lon="0.554126">
        <ele>2192.8</ele>
        <time>2019-08-23T10:24:35Z</time>
      </trkpt>
      <trkpt lat="42.718463" lon="0.554012">
        <ele>2194.4</ele>
        <time>2019-08-23T10:24:52Z</time>
      </trkpt>
      <trkpt lat="42.718413" lon="0.554036">
        <ele>2196.4</ele>
        <time>2019-08-23T10:25:02Z</time>
      </trkpt>
      <trkpt lat="42.718342" lon="0.554119">
        <ele>2198.1</ele>
        <time>2019-08-23T10:25:11Z</time>
      </trkpt>
      <trkpt lat="42.718278" lon="0.554204">
        <ele>2200.4</ele>
        <time>2019-08-23T10:25:20Z</time>
      </trkpt>
      <trkpt lat="42.718222" lon="0.554306">
        <ele>2202.2</ele>
        <time>2019-08-23T10:25:29Z</time>
      </trkpt>
      <trkpt lat="42.718146" lon="0.554392">
        <ele>2204.4</ele>
        <time>2019-08-23T10:25:38Z</time>
      </trkpt>
      <trkpt lat="42.718080" lon="0.554492">
        <ele>2206.7</ele>
        <time>2019-08-23T10:25:47Z</time>
      </trkpt>
      <trkpt lat="42.718017" lon="0.554612">
        <ele>2209.7</ele>
        <time>2019-08-23T10:25:58Z</time>
      </trkpt>
      <trkpt lat="42.717951" lon="0.554707">
        <ele>2212.3</ele>
        <time>2019-08-23T10:26:10Z</time>
      </trkpt>
      <trkpt lat="42.717968" lon="0.554578">
        <ele>2214.2</ele>
        <time>2019-08-23T10:26:20Z</time>
      </trkpt>
      <trkpt lat="42.717977" lon="0.554444">
        <ele>2216.6</ele>
        <time>2019-08-23T10:26:30Z</time>
      </trkpt>
      <trkpt lat="42.717986" lon="0.554317">
        <ele>2218.4</ele>
        <time>2019-08-23T10:26:40Z</time>
      </trkpt>
      <trkpt lat="42.718020" lon="0.554202">
        <ele>2220.4</ele>
        <time>2019-08-23T10:26:50Z</time>
      </trkpt>
      <trkpt lat="42.718026" lon="0.554082">
        <ele>2222.6</ele>
        <time>2019-08-23T10:27:00Z</time>
      </trkpt>
      <trkpt lat="42.718042" lon="0.553955">
        <ele>2223.9</ele>
        <time>2019-08-23T10:27:10Z</time>
      </trkpt>
      <trkpt lat="42.718079" lon="0.553843">
        <ele>2224.1</ele>
        <time>2019-08-23T10:27:19Z</time>
      </trkpt>
      <trkpt lat="42.718090" lon="0.553715">
        <ele>2224.5</ele>
        <time>2019-08-23T10:27:27Z</time>
      </trkpt>
      <trkpt lat="42.718096" lon="0.553582">
        <ele>2225.2</ele>
        <time>2019-08-23T10:27:36Z</time>
      </trkpt>
      <trkpt lat="42.718100" lon="0.553452">
        <ele>2226.6</ele>
        <time>2019-08-23T10:27:45Z</time>
      </trkpt>
      <trkpt lat="42.718127" lon="0.553317">
        <ele>2228.6</ele>
        <time>2019-08-23T10:27:53Z</time>
      </trkpt>
      <trkpt lat="42.718137" lon="0.553187">
        <ele>2229.8</ele>
        <time>2019-08-23T10:28:03Z</time>
      </trkpt>
      <trkpt lat="42.718144" lon="0.553059">
        <ele>2230.0</ele>
        <time>2019-08-23T10:28:12Z</time>
      </trkpt>
      <trkpt lat="42.718158" lon="0.552938">
        <ele>2231.0</ele>
        <time>2019-08-23T10:28:20Z</time>
      </trkpt>
      <trkpt lat="42.718139" lon="0.552812">
        <ele>2232.1</ele>
        <time>2019-08-23T10:28:29Z</time>
      </trkpt>
      <trkpt lat="42.718161" lon="0.552691">
        <ele>2235.1</ele>
        <time>2019-08-23T10:28:43Z</time>
      </trkpt>
      <trkpt lat="42.718202" lon="0.552588">
        <ele>2238.8</ele>
        <time>2019-08-23T10:28:54Z</time>
      </trkpt>
      <trkpt lat="42.718180" lon="0.552454">
        <ele>2241.4</ele>
        <time>2019-08-23T10:29:04Z</time>
      </trkpt>
      <trkpt lat="42.718117" lon="0.552465">
        <ele>2244.3</ele>
        <time>2019-08-23T10:29:15Z</time>
      </trkpt>
      <trkpt lat="42.718032" lon="0.552542">
        <ele>2246.7</ele>
        <time>2019-08-23T10:29:25Z</time>
      </trkpt>
      <trkpt lat="42.717936" lon="0.552586">
        <ele>2250.6</ele>
        <time>2019-08-23T10:29:38Z</time>
      </trkpt>
      <trkpt lat="42.717851" lon="0.552590">
        <ele>2252.6</ele>
        <time>2019-08-23T10:29:50Z</time>
      </trkpt>
      <trkpt lat="42.717793" lon="0.552711">
        <ele>2254.3</ele>
        <time>2019-08-23T10:30:01Z</time>
      </trkpt>
      <trkpt lat="42.717741" lon="0.552731">
        <ele>2257.6</ele>
        <time>2019-08-23T10:30:14Z</time>
      </trkpt>
      <trkpt lat="42.717696" lon="0.552627">
        <ele>2260.4</ele>
        <time>2019-08-23T10:30:25Z</time>
      </trkpt>
      <trkpt lat="42.717737" lon="0.552516">
        <ele>2263.6</ele>
        <time>2019-08-23T10:30:35Z</time>
      </trkpt>
      <trkpt lat="42.717766" lon="0.552407">
        <ele>2266.4</ele>
        <time>2019-08-23T10:30:45Z</time>
      </trkpt>
      <trkpt lat="42.717717" lon="0.552354">
        <ele>2268.5</ele>
        <time>2019-08-23T10:30:56Z</time>
      </trkpt>
      <trkpt lat="42.717636" lon="0.552391">
        <ele>2270.8</ele>
        <time>2019-08-23T10:31:08Z</time>
      </trkpt>
      <trkpt lat="42.717584" lon="0.552485">
        <ele>2273.2</ele>
        <time>2019-08-23T10:31:20Z</time>
      </trkpt>
      <trkpt lat="42.717537" lon="0.552589">
        <ele>2276.0</ele>
        <time>2019-08-23T10:31:31Z</time>
      </trkpt>
      <trkpt lat="42.717470" lon="0.552674">
        <ele>2278.0</ele>
        <time>2019-08-23T10:31:39Z</time>
      </trkpt>
      <trkpt lat="42.717422" lon="0.552786">
        <ele>2280.6</ele>
        <time>2019-08-23T10:31:49Z</time>
      </trkpt>
      <trkpt lat="42.717381" lon="0.552909">
        <ele>2282.9</ele>
        <time>2019-08-23T10:31:58Z</time>
      </trkpt>
      <trkpt lat="42.717320" lon="0.552977">
        <ele>2285.3</ele>
        <time>2019-08-23T10:32:08Z</time>
      </trkpt>
      <trkpt lat="42.717277" lon="0.552905">
        <ele>2288.1</ele>
        <time>2019-08-23T10:32:20Z</time>
      </trkpt>
      <trkpt lat="42.717248" lon="0.552786">
        <ele>2289.9</ele>
        <time>2019-08-23T10:32:29Z</time>
      </trkpt>
      <trkpt lat="42.717190" lon="0.552696">
        <ele>2291.8</ele>
        <time>2019-08-23T10:32:37Z</time>
      </trkpt>
      <trkpt lat="42.717148" lon="0.552585">
        <ele>2293.1</ele>
        <time>2019-08-23T10:32:45Z</time>
      </trkpt>
      <trkpt lat="42.717144" lon="0.552448">
        <ele>2294.3</ele>
        <time>2019-08-23T10:32:53Z</time>
      </trkpt>
      <trkpt lat="42.717161" lon="0.552320">
        <ele>2295.3</ele>
        <time>2019-08-23T10:33:01Z</time>
      </trkpt>
      <trkpt lat="42.717195" lon="0.552201">
        <ele>2295.6</ele>
        <time>2019-08-23T10:33:09Z</time>
      </trkpt>
      <trkpt lat="42.717226" lon="0.552090">
        <ele>2296.7</ele>
        <time>2019-08-23T10:33:18Z</time>
      </trkpt>
      <trkpt lat="42.717242" lon="0.551940">
        <ele>2299.6</ele>
        <time>2019-08-23T10:33:31Z</time>
      </trkpt>
      <trkpt lat="42.717181" lon="0.551849">
        <ele>2303.0</ele>
        <time>2019-08-23T10:33:43Z</time>
      </trkpt>
      <trkpt lat="42.717106" lon="0.551859">
        <ele>2306.4</ele>
        <time>2019-08-23T10:33:58Z</time>
      </trkpt>
      <trkpt lat="42.717102" lon="0.551834">
        <ele>2309.5</ele>
        <time>2019-08-23T10:34:13Z</time>
      </trkpt>
      <trkpt lat="42.717024" lon="0.551898">
        <ele>2312.9</ele>
        <time>2019-08-23T10:34:27Z</time>
      </trkpt>
      <trkpt lat="42.716951" lon="0.551985">
        <ele>2314.2</ele>
        <time>2019-08-23T10:34:36Z</time>
      </trkpt>
      <trkpt lat="42.716895" lon="0.552080">
        <ele>2314.4</ele>
        <time>2019-08-23T10:34:49Z</time>
      </trkpt>
      <trkpt lat="42.716888" lon="0.552179">
        <ele>2314.6</ele>
        <time>2019-08-23T10:35:32Z</time>
      </trkpt>
      <trkpt lat="42.716845" lon="0.552089">
        <ele>2318.0</ele>
        <time>2019-08-23T10:35:51Z</time>
      </trkpt>
      <trkpt lat="42.716769" lon="0.552112">
        <ele>2320.9</ele>
        <time>2019-08-23T10:36:03Z</time>
      </trkpt>
      <trkpt lat="42.716737" lon="0.551972">
        <ele>2324.9</ele>
        <time>2019-08-23T10:36:15Z</time>
      </trkpt>
      <trkpt lat="42.716706" lon="0.551865">
        <ele>2328.7</ele>
        <time>2019-08-23T10:36:28Z</time>
      </trkpt>
      <trkpt lat="42.716631" lon="0.551967">
        <ele>2331.4</ele>
        <time>2019-08-23T10:36:38Z</time>
      </trkpt>
      <trkpt lat="42.716577" lon="0.552075">
        <ele>2333.2</ele>
        <time>2019-08-23T10:36:47Z</time>
      </trkpt>
      <trkpt lat="42.716521" lon="0.552179">
        <ele>2334.4</ele>
        <time>2019-08-23T10:36:57Z</time>
      </trkpt>
      <trkpt lat="42.716503" lon="0.552215">
        <ele>2337.1</ele>
        <time>2019-08-23T10:37:30Z</time>
      </trkpt>
      <trkpt lat="42.716498" lon="0.552093">
        <ele>2339.5</ele>
        <time>2019-08-23T10:37:38Z</time>
      </trkpt>
      <trkpt lat="42.716481" lon="0.551958">
        <ele>2341.8</ele>
        <time>2019-08-23T10:37:46Z</time>
      </trkpt>
      <trkpt lat="42.716431" lon="0.551901">
        <ele>2344.6</ele>
        <time>2019-08-23T10:37:54Z</time>
      </trkpt>
      <trkpt lat="42.716388" lon="0.552017">
        <ele>2347.0</ele>
        <time>2019-08-23T10:38:02Z</time>
      </trkpt>
      <trkpt lat="42.716303" lon="0.552112">
        <ele>2349.4</ele>
        <time>2019-08-23T10:38:11Z</time>
      </trkpt>
      <trkpt lat="42.716261" lon="0.552235">
        <ele>2353.3</ele>
        <time>2019-08-23T10:38:24Z</time>
      </trkpt>
      <trkpt lat="42.716217" lon="0.552353">
        <ele>2355.5</ele>
        <time>2019-08-23T10:38:33Z</time>
      </trkpt>
      <trkpt lat="42.716144" lon="0.552409">
        <ele>2357.2</ele>
        <time>2019-08-23T10:38:43Z</time>
      </trkpt>
      <trkpt lat="42.716057" lon="0.552424">
        <ele>2359.6</ele>
        <time>2019-08-23T10:39:06Z</time>
      </trkpt>
      <trkpt lat="42.715999" lon="0.552418">
        <ele>2362.2</ele>
        <time>2019-08-23T10:39:16Z</time>
      </trkpt>
      <trkpt lat="42.716054" lon="0.552294">
        <ele>2364.1</ele>
        <time>2019-08-23T10:39:25Z</time>
      </trkpt>
      <trkpt lat="42.716068" lon="0.552173">
        <ele>2367.4</ele>
        <time>2019-08-23T10:39:37Z</time>
      </trkpt>
      <trkpt lat="42.716071" lon="0.552085">
        <ele>2370.0</ele>
        <time>2019-08-23T10:39:48Z</time>
      </trkpt>
      <trkpt lat="42.715982" lon="0.552166">
        <ele>2372.4</ele>
        <time>2019-08-23T10:39:59Z</time>
      </trkpt>
      <trkpt lat="42.715906" lon="0.552242">
        <ele>2374.8</ele>
        <time>2019-08-23T10:40:09Z</time>
      </trkpt>
      <trkpt lat="42.715828" lon="0.552255">
        <ele>2377.1</ele>
        <time>2019-08-23T10:40:19Z</time>
      </trkpt>
      <trkpt lat="42.715854" lon="0.552124">
        <ele>2379.9</ele>
        <time>2019-08-23T10:40:28Z</time>
      </trkpt>
      <trkpt lat="42.715866" lon="0.552016">
        <ele>2382.5</ele>
        <time>2019-08-23T10:40:42Z</time>
      </trkpt>
      <trkpt lat="42.715836" lon="0.551994">
        <ele>2385.4</ele>
        <time>2019-08-23T10:40:54Z</time>
      </trkpt>
      <trkpt lat="42.715820" lon="0.551875">
        <ele>2388.1</ele>
        <time>2019-08-23T10:41:04Z</time>
      </trkpt>
      <trkpt lat="42.715802" lon="0.551760">
        <ele>2390.5</ele>
        <time>2019-08-23T10:41:13Z</time>
      </trkpt>
      <trkpt lat="42.715717" lon="0.551666">
        <ele>2392.5</ele>
        <time>2019-08-23T10:41:24Z</time>
      </trkpt>
      <trkpt lat="42.715800" lon="0.551636">
        <ele>2393.9</ele>
        <time>2019-08-23T10:41:32Z</time>
      </trkpt>
      <trkpt lat="42.715883" lon="0.551602">
        <ele>2396.6</ele>
        <time>2019-08-23T10:41:41Z</time>
      </trkpt>
      <trkpt lat="42.715963" lon="0.551557">
        <ele>2398.8</ele>
        <time>2019-08-23T10:41:48Z</time>
      </trkpt>
      <trkpt lat="42.716020" lon="0.551445">
        <ele>2402.3</ele>
        <time>2019-08-23T10:42:02Z</time>
      </trkpt>
      <trkpt lat="42.716049" lon="0.551359">
        <ele>2404.8</ele>
        <time>2019-08-23T10:42:12Z</time>
      </trkpt>
      <trkpt lat="42.715952" lon="0.551368">
        <ele>2406.7</ele>
        <time>2019-08-23T10:42:22Z</time>
      </trkpt>
      <trkpt lat="42.715862" lon="0.551386">
        <ele>2408.2</ele>
        <time>2019-08-23T10:42:31Z</time>
      </trkpt>
      <trkpt lat="42.715769" lon="0.551408">
        <ele>2409.8</ele>
        <time>2019-08-23T10:42:40Z</time>
      </trkpt>
      <trkpt lat="42.715713" lon="0.551335">
        <ele>2412.0</ele>
        <time>2019-08-23T10:42:50Z</time>
      </trkpt>
      <trkpt lat="42.715747" lon="0.551228">
        <ele>2414.7</ele>
        <time>2019-08-23T10:43:04Z</time>
      </trkpt>
      <trkpt lat="42.715730" lon="0.551090">
        <ele>2416.3</ele>
        <time>2019-08-23T10:43:15Z</time>
      </trkpt>
      <trkpt lat="42.715687" lon="0.550946">
        <ele>2417.8</ele>
        <time>2019-08-23T10:43:26Z</time>
      </trkpt>
      <trkpt lat="42.715631" lon="0.550825">
        <ele>2418.1</ele>
        <time>2019-08-23T10:43:36Z</time>
      </trkpt>
      <trkpt lat="42.715582" lon="0.550734">
        <ele>2419.1</ele>
        <time>2019-08-23T10:43:45Z</time>
      </trkpt>
      <trkpt lat="42.715511" lon="0.550651">
        <ele>2420.9</ele>
        <time>2019-08-23T10:43:54Z</time>
      </trkpt>
      <trkpt lat="42.715429" lon="0.550607">
        <ele>2421.0</ele>
        <time>2019-08-23T10:44:07Z</time>
      </trkpt>
      <trkpt lat="42.715405" lon="0.550489">
        <ele>2418.4</ele>
        <time>2019-08-23T10:44:26Z</time>
      </trkpt>
      <trkpt lat="42.715359" lon="0.550405">
        <ele>2420.1</ele>
        <time>2019-08-23T10:45:10Z</time>
      </trkpt>
      <trkpt lat="42.715330" lon="0.550271">
        <ele>2418.6</ele>
        <time>2019-08-23T10:45:22Z</time>
      </trkpt>
      <trkpt lat="42.715274" lon="0.550175">
        <ele>2418.4</ele>
        <time>2019-08-23T10:45:31Z</time>
      </trkpt>
      <trkpt lat="42.715188" lon="0.550115">
        <ele>2419.1</ele>
        <time>2019-08-23T10:45:40Z</time>
      </trkpt>
      <trkpt lat="42.715107" lon="0.550044">
        <ele>2420.4</ele>
        <time>2019-08-23T10:45:50Z</time>
      </trkpt>
      <trkpt lat="42.715071" lon="0.549927">
        <ele>2420.4</ele>
        <time>2019-08-23T10:45:59Z</time>
      </trkpt>
      <trkpt lat="42.715061" lon="0.549795">
        <ele>2420.4</ele>
        <time>2019-08-23T10:46:09Z</time>
      </trkpt>
      <trkpt lat="42.714997" lon="0.549692">
        <ele>2421.4</ele>
        <time>2019-08-23T10:46:18Z</time>
      </trkpt>
      <trkpt lat="42.714922" lon="0.549622">
        <ele>2422.4</ele>
        <time>2019-08-23T10:46:26Z</time>
      </trkpt>
      <trkpt lat="42.714849" lon="0.549542">
        <ele>2423.0</ele>
        <time>2019-08-23T10:46:33Z</time>
      </trkpt>
      <trkpt lat="42.714842" lon="0.549406">
        <ele>2424.8</ele>
        <time>2019-08-23T10:46:43Z</time>
      </trkpt>
      <trkpt lat="42.714829" lon="0.549284">
        <ele>2427.3</ele>
        <time>2019-08-23T10:46:52Z</time>
      </trkpt>
      <trkpt lat="42.714845" lon="0.549169">
        <ele>2428.7</ele>
        <time>2019-08-23T10:47:28Z</time>
      </trkpt>
      <trkpt lat="42.714865" lon="0.549107">
        <ele>2429.0</ele>
        <time>2019-08-23T10:50:10Z</time>
      </trkpt>
      <trkpt lat="42.714844" lon="0.549065">
        <ele>2433.3</ele>
        <time>2019-08-23T11:14:35Z</time>
      </trkpt>
      <trkpt lat="42.714758" lon="0.549091">
        <ele>2433.8</ele>
        <time>2019-08-23T11:14:48Z</time>
      </trkpt>
      <trkpt lat="42.714689" lon="0.549191">
        <ele>2435.4</ele>
        <time>2019-08-23T11:15:02Z</time>
      </trkpt>
      <trkpt lat="42.714656" lon="0.549278">
        <ele>2435.1</ele>
        <time>2019-08-23T11:15:26Z</time>
      </trkpt>
      <trkpt lat="42.714650" lon="0.549311">
        <ele>2437.9</ele>
        <time>2019-08-23T11:19:56Z</time>
      </trkpt>
      <trkpt lat="42.714579" lon="0.549384">
        <ele>2438.9</ele>
        <time>2019-08-23T11:20:11Z</time>
      </trkpt>
      <trkpt lat="42.714518" lon="0.549470">
        <ele>2439.6</ele>
        <time>2019-08-23T11:20:20Z</time>
      </trkpt>
      <trkpt lat="42.714443" lon="0.549527">
        <ele>2440.9</ele>
        <time>2019-08-23T11:20:29Z</time>
      </trkpt>
      <trkpt lat="42.714394" lon="0.549640">
        <ele>2442.3</ele>
        <time>2019-08-23T11:20:41Z</time>
      </trkpt>
      <trkpt lat="42.714353" lon="0.549763">
        <ele>2443.4</ele>
        <time>2019-08-23T11:20:55Z</time>
      </trkpt>
      <trkpt lat="42.714329" lon="0.549861">
        <ele>2443.9</ele>
        <time>2019-08-23T11:21:12Z</time>
      </trkpt>
      <trkpt lat="42.714266" lon="0.549938">
        <ele>2444.8</ele>
        <time>2019-08-23T11:21:26Z</time>
      </trkpt>
      <trkpt lat="42.714194" lon="0.550009">
        <ele>2447.4</ele>
        <time>2019-08-23T11:21:38Z</time>
      </trkpt>
      <trkpt lat="42.714123" lon="0.550065">
        <ele>2450.3</ele>
        <time>2019-08-23T11:21:57Z</time>
      </trkpt>
      <trkpt lat="42.714169" lon="0.550148">
        <ele>2454.1</ele>
        <time>2019-08-23T11:22:17Z</time>
      </trkpt>
      <trkpt lat="42.714191" lon="0.550259">
        <ele>2456.7</ele>
        <time>2019-08-23T11:23:08Z</time>
      </trkpt>
      <trkpt lat="42.714255" lon="0.550316">
        <ele>2460.0</ele>
        <time>2019-08-23T11:23:31Z</time>
      </trkpt>
      <trkpt lat="42.714311" lon="0.550385">
        <ele>2461.8</ele>
        <time>2019-08-23T11:23:50Z</time>
      </trkpt>
      <trkpt lat="42.714293" lon="0.550522">
        <ele>2463.0</ele>
        <time>2019-08-23T11:24:03Z</time>
      </trkpt>
      <trkpt lat="42.714174" lon="0.550514">
        <ele>2465.5</ele>
        <time>2019-08-23T11:24:19Z</time>
      </trkpt>
      <trkpt lat="42.714122" lon="0.550592">
        <ele>2468.0</ele>
        <time>2019-08-23T11:24:37Z</time>
      </trkpt>
      <trkpt lat="42.714087" lon="0.550647">
        <ele>2469.4</ele>
        <time>2019-08-23T11:25:03Z</time>
      </trkpt>
      <trkpt lat="42.714078" lon="0.550761">
        <ele>2471.6</ele>
        <time>2019-08-23T11:25:19Z</time>
      </trkpt>
      <trkpt lat="42.714079" lon="0.550873">
        <ele>2472.0</ele>
        <time>2019-08-23T11:25:37Z</time>
      </trkpt>
      <trkpt lat="42.714062" lon="0.551005">
        <ele>2471.9</ele>
        <time>2019-08-23T11:25:51Z</time>
      </trkpt>
      <trkpt lat="42.713982" lon="0.551119">
        <ele>2472.8</ele>
        <time>2019-08-23T11:26:16Z</time>
      </trkpt>
      <trkpt lat="42.713894" lon="0.551173">
        <ele>2474.2</ele>
        <time>2019-08-23T11:26:40Z</time>
      </trkpt>
      <trkpt lat="42.713840" lon="0.551284">
        <ele>2475.2</ele>
        <time>2019-08-23T11:26:52Z</time>
      </trkpt>
      <trkpt lat="42.713821" lon="0.551423">
        <ele>2475.9</ele>
        <time>2019-08-23T11:27:04Z</time>
      </trkpt>
      <trkpt lat="42.713799" lon="0.551558">
        <ele>2476.9</ele>
        <time>2019-08-23T11:27:17Z</time>
      </trkpt>
      <trkpt lat="42.713767" lon="0.551666">
        <ele>2477.0</ele>
        <time>2019-08-23T11:27:31Z</time>
      </trkpt>
      <trkpt lat="42.713656" lon="0.551669">
        <ele>2478.4</ele>
        <time>2019-08-23T11:27:44Z</time>
      </trkpt>
      <trkpt lat="42.713566" lon="0.551670">
        <ele>2480.6</ele>
        <time>2019-08-23T11:27:59Z</time>
      </trkpt>
      <trkpt lat="42.713541" lon="0.551557">
        <ele>2481.9</ele>
        <time>2019-08-23T11:28:15Z</time>
      </trkpt>
      <trkpt lat="42.713492" lon="0.551448">
        <ele>2483.4</ele>
        <time>2019-08-23T11:28:28Z</time>
      </trkpt>
      <trkpt lat="42.713442" lon="0.551329">
        <ele>2485.1</ele>
        <time>2019-08-23T11:28:42Z</time>
      </trkpt>
      <trkpt lat="42.713351" lon="0.551251">
        <ele>2487.0</ele>
        <time>2019-08-23T11:28:57Z</time>
      </trkpt>
      <trkpt lat="42.713289" lon="0.551155">
        <ele>2488.4</ele>
        <time>2019-08-23T11:29:11Z</time>
      </trkpt>
      <trkpt lat="42.713212" lon="0.551063">
        <ele>2489.4</ele>
        <time>2019-08-23T11:29:24Z</time>
      </trkpt>
      <trkpt lat="42.713182" lon="0.550929">
        <ele>2490.3</ele>
        <time>2019-08-23T11:29:36Z</time>
      </trkpt>
      <trkpt lat="42.713144" lon="0.550809">
        <ele>2491.3</ele>
        <time>2019-08-23T11:29:55Z</time>
      </trkpt>
      <trkpt lat="42.713112" lon="0.550806">
        <ele>2494.0</ele>
        <time>2019-08-23T11:30:25Z</time>
      </trkpt>
      <trkpt lat="42.713081" lon="0.550776">
        <ele>2496.4</ele>
        <time>2019-08-23T11:30:45Z</time>
      </trkpt>
      <trkpt lat="42.713063" lon="0.550865">
        <ele>2498.6</ele>
        <time>2019-08-23T11:31:18Z</time>
      </trkpt>
      <trkpt lat="42.713065" lon="0.550985">
        <ele>2500.1</ele>
        <time>2019-08-23T11:31:31Z</time>
      </trkpt>
      <trkpt lat="42.713051" lon="0.551101">
        <ele>2503.0</ele>
        <time>2019-08-23T11:31:46Z</time>
      </trkpt>
      <trkpt lat="42.713004" lon="0.551206">
        <ele>2506.4</ele>
        <time>2019-08-23T11:32:05Z</time>
      </trkpt>
      <trkpt lat="42.712971" lon="0.551285">
        <ele>2510.2</ele>
        <time>2019-08-23T11:32:27Z</time>
      </trkpt>
      <trkpt lat="42.712948" lon="0.551370">
        <ele>2511.5</ele>
        <time>2019-08-23T11:32:53Z</time>
      </trkpt>
      <trkpt lat="42.712940" lon="0.551492">
        <ele>2514.7</ele>
        <time>2019-08-23T11:33:11Z</time>
      </trkpt>
      <trkpt lat="42.712864" lon="0.551545">
        <ele>2519.4</ele>
        <time>2019-08-23T11:33:32Z</time>
      </trkpt>
      <trkpt lat="42.712793" lon="0.551581">
        <ele>2524.7</ele>
        <time>2019-08-23T11:33:54Z</time>
      </trkpt>
      <trkpt lat="42.712714" lon="0.551616">
        <ele>2528.9</ele>
        <time>2019-08-23T11:34:13Z</time>
      </trkpt>
      <trkpt lat="42.712641" lon="0.551632">
        <ele>2532.9</ele>
        <time>2019-08-23T11:34:36Z</time>
      </trkpt>
      <trkpt lat="42.712600" lon="0.551597">
        <ele>2535.0</ele>
        <time>2019-08-23T11:34:49Z</time>
      </trkpt>
      <trkpt lat="42.712539" lon="0.551638">
        <ele>2537.5</ele>
        <time>2019-08-23T11:35:09Z</time>
      </trkpt>
      <trkpt lat="42.712493" lon="0.551667">
        <ele>2539.8</ele>
        <time>2019-08-23T11:36:25Z</time>
      </trkpt>
      <trkpt lat="42.712424" lon="0.551647">
        <ele>2543.1</ele>
        <time>2019-08-23T11:36:46Z</time>
      </trkpt>
      <trkpt lat="42.712377" lon="0.551618">
        <ele>2545.8</ele>
        <time>2019-08-23T11:37:01Z</time>
      </trkpt>
      <trkpt lat="42.712326" lon="0.551659">
        <ele>2549.4</ele>
        <time>2019-08-23T11:37:18Z</time>
      </trkpt>
      <trkpt lat="42.712270" lon="0.551664">
        <ele>2553.3</ele>
        <time>2019-08-23T11:37:36Z</time>
      </trkpt>
      <trkpt lat="42.712206" lon="0.551690">
        <ele>2556.0</ele>
        <time>2019-08-23T11:37:52Z</time>
      </trkpt>
      <trkpt lat="42.712146" lon="0.551737">
        <ele>2559.5</ele>
        <time>2019-08-23T11:38:10Z</time>
      </trkpt>
      <trkpt lat="42.712095" lon="0.551806">
        <ele>2561.4</ele>
        <time>2019-08-23T11:38:23Z</time>
      </trkpt>
      <trkpt lat="42.712021" lon="0.551747">
        <ele>2563.6</ele>
        <time>2019-08-23T11:38:37Z</time>
      </trkpt>
      <trkpt lat="42.711947" lon="0.551733">
        <ele>2565.8</ele>
        <time>2019-08-23T11:39:06Z</time>
      </trkpt>
      <trkpt lat="42.711858" lon="0.551710">
        <ele>2568.6</ele>
        <time>2019-08-23T11:39:24Z</time>
      </trkpt>
      <trkpt lat="42.711783" lon="0.551622">
        <ele>2570.5</ele>
        <time>2019-08-23T11:39:40Z</time>
      </trkpt>
      <trkpt lat="42.711732" lon="0.551528">
        <ele>2572.6</ele>
        <time>2019-08-23T11:39:56Z</time>
      </trkpt>
      <trkpt lat="42.711659" lon="0.551484">
        <ele>2574.5</ele>
        <time>2019-08-23T11:40:14Z</time>
      </trkpt>
      <trkpt lat="42.711568" lon="0.551457">
        <ele>2575.8</ele>
        <time>2019-08-23T11:40:27Z</time>
      </trkpt>
      <trkpt lat="42.711494" lon="0.551370">
        <ele>2577.9</ele>
        <time>2019-08-23T11:40:43Z</time>
      </trkpt>
      <trkpt lat="42.711453" lon="0.551273">
        <ele>2580.6</ele>
        <time>2019-08-23T11:40:59Z</time>
      </trkpt>
      <trkpt lat="42.711402" lon="0.551212">
        <ele>2584.0</ele>
        <time>2019-08-23T11:41:20Z</time>
      </trkpt>
      <trkpt lat="42.711418" lon="0.551151">
        <ele>2585.2</ele>
        <time>2019-08-23T11:41:37Z</time>
      </trkpt>
      <trkpt lat="42.711469" lon="0.551073">
        <ele>2586.4</ele>
        <time>2019-08-23T11:42:43Z</time>
      </trkpt>
      <trkpt lat="42.711439" lon="0.551013">
        <ele>2588.3</ele>
        <time>2019-08-23T11:43:06Z</time>
      </trkpt>
      <trkpt lat="42.711350" lon="0.550969">
        <ele>2590.0</ele>
        <time>2019-08-23T11:43:20Z</time>
      </trkpt>
      <trkpt lat="42.711269" lon="0.550895">
        <ele>2593.0</ele>
        <time>2019-08-23T11:43:37Z</time>
      </trkpt>
      <trkpt lat="42.711205" lon="0.550808">
        <ele>2594.9</ele>
        <time>2019-08-23T11:43:52Z</time>
      </trkpt>
      <trkpt lat="42.711128" lon="0.550748">
        <ele>2595.7</ele>
        <time>2019-08-23T11:44:04Z</time>
      </trkpt>
      <trkpt lat="42.711073" lon="0.550636">
        <ele>2597.3</ele>
        <time>2019-08-23T11:44:18Z</time>
      </trkpt>
      <trkpt lat="42.711031" lon="0.550511">
        <ele>2599.1</ele>
        <time>2019-08-23T11:44:29Z</time>
      </trkpt>
      <trkpt lat="42.710921" lon="0.550468">
        <ele>2600.1</ele>
        <time>2019-08-23T11:45:29Z</time>
      </trkpt>
      <trkpt lat="42.710842" lon="0.550430">
        <ele>2601.6</ele>
        <time>2019-08-23T11:45:49Z</time>
      </trkpt>
      <trkpt lat="42.710774" lon="0.550455">
        <ele>2604.3</ele>
        <time>2019-08-23T11:46:03Z</time>
      </trkpt>
      <trkpt lat="42.710684" lon="0.550388">
        <ele>2605.8</ele>
        <time>2019-08-23T11:46:18Z</time>
      </trkpt>
      <trkpt lat="42.710623" lon="0.550414">
        <ele>2604.9</ele>
        <time>2019-08-23T11:47:05Z</time>
      </trkpt>
      <trkpt lat="42.710554" lon="0.550504">
        <ele>2605.3</ele>
        <time>2019-08-23T11:47:17Z</time>
      </trkpt>
      <trkpt lat="42.710489" lon="0.550623">
        <ele>2606.9</ele>
        <time>2019-08-23T11:47:35Z</time>
      </trkpt>
      <trkpt lat="42.710398" lon="0.550659">
        <ele>2608.2</ele>
        <time>2019-08-23T11:47:49Z</time>
      </trkpt>
      <trkpt lat="42.710313" lon="0.550644">
        <ele>2608.9</ele>
        <time>2019-08-23T11:48:00Z</time>
      </trkpt>
      <trkpt lat="42.710226" lon="0.550711">
        <ele>2609.2</ele>
        <time>2019-08-23T11:48:12Z</time>
      </trkpt>
      <trkpt lat="42.710136" lon="0.550762">
        <ele>2610.8</ele>
        <time>2019-08-23T11:48:24Z</time>
      </trkpt>
      <trkpt lat="42.710031" lon="0.550680">
        <ele>2611.3</ele>
        <time>2019-08-23T11:48:37Z</time>
      </trkpt>
      <trkpt lat="42.709946" lon="0.550659">
        <ele>2614.1</ele>
        <time>2019-08-23T11:48:59Z</time>
      </trkpt>
      <trkpt lat="42.709856" lon="0.550692">
        <ele>2616.9</ele>
        <time>2019-08-23T11:49:14Z</time>
      </trkpt>
      <trkpt lat="42.709773" lon="0.550763">
        <ele>2624.2</ele>
        <time>2019-08-23T11:49:54Z</time>
      </trkpt>
      <trkpt lat="42.709731" lon="0.550812">
        <ele>2627.2</ele>
        <time>2019-08-23T11:50:15Z</time>
      </trkpt>
      <trkpt lat="42.709666" lon="0.550760">
        <ele>2630.1</ele>
        <time>2019-08-23T11:50:31Z</time>
      </trkpt>
      <trkpt lat="42.709593" lon="0.550776">
        <ele>2633.4</ele>
        <time>2019-08-23T11:50:46Z</time>
      </trkpt>
      <trkpt lat="42.709524" lon="0.550755">
        <ele>2636.1</ele>
        <time>2019-08-23T11:51:02Z</time>
      </trkpt>
      <trkpt lat="42.709451" lon="0.550844">
        <ele>2638.4</ele>
        <time>2019-08-23T11:51:18Z</time>
      </trkpt>
      <trkpt lat="42.709397" lon="0.550969">
        <ele>2639.4</ele>
        <time>2019-08-23T11:51:31Z</time>
      </trkpt>
      <trkpt lat="42.709334" lon="0.551026">
        <ele>2640.8</ele>
        <time>2019-08-23T11:51:45Z</time>
      </trkpt>
      <trkpt lat="42.709219" lon="0.551070">
        <ele>2641.5</ele>
        <time>2019-08-23T11:52:00Z</time>
      </trkpt>
      <trkpt lat="42.709093" lon="0.551074">
        <ele>2642.4</ele>
        <time>2019-08-23T11:52:16Z</time>
      </trkpt>
      <trkpt lat="42.709014" lon="0.551028">
        <ele>2642.5</ele>
        <time>2019-08-23T11:52:27Z</time>
      </trkpt>
      <trkpt lat="42.708915" lon="0.551009">
        <ele>2643.0</ele>
        <time>2019-08-23T11:52:48Z</time>
      </trkpt>
      <trkpt lat="42.708783" lon="0.551022">
        <ele>2648.4</ele>
        <time>2019-08-23T11:53:28Z</time>
      </trkpt>
      <trkpt lat="42.708740" lon="0.551081">
        <ele>2651.0</ele>
        <time>2019-08-23T11:53:51Z</time>
      </trkpt>
      <trkpt lat="42.708654" lon="0.551043">
        <ele>2655.7</ele>
        <time>2019-08-23T11:54:17Z</time>
      </trkpt>
      <trkpt lat="42.708610" lon="0.551031">
        <ele>2658.8</ele>
        <time>2019-08-23T11:54:46Z</time>
      </trkpt>
      <trkpt lat="42.708532" lon="0.551015">
        <ele>2663.1</ele>
        <time>2019-08-23T11:55:13Z</time>
      </trkpt>
      <trkpt lat="42.708483" lon="0.551012">
        <ele>2668.4</ele>
        <time>2019-08-23T11:55:48Z</time>
      </trkpt>
      <trkpt lat="42.708401" lon="0.551045">
        <ele>2673.4</ele>
        <time>2019-08-23T11:56:29Z</time>
      </trkpt>
      <trkpt lat="42.708334" lon="0.551027">
        <ele>2677.1</ele>
        <time>2019-08-23T11:56:52Z</time>
      </trkpt>
      <trkpt lat="42.708285" lon="0.550989">
        <ele>2681.2</ele>
        <time>2019-08-23T11:57:15Z</time>
      </trkpt>
      <trkpt lat="42.708215" lon="0.550988">
        <ele>2685.4</ele>
        <time>2019-08-23T11:57:39Z</time>
      </trkpt>
      <trkpt lat="42.708168" lon="0.550962">
        <ele>2688.5</ele>
        <time>2019-08-23T11:58:09Z</time>
      </trkpt>
      <trkpt lat="42.708109" lon="0.550896">
        <ele>2692.3</ele>
        <time>2019-08-23T11:58:36Z</time>
      </trkpt>
      <trkpt lat="42.708081" lon="0.550932">
        <ele>2695.3</ele>
        <time>2019-08-23T11:59:05Z</time>
      </trkpt>
      <trkpt lat="42.708000" lon="0.550898">
        <ele>2698.7</ele>
        <time>2019-08-23T11:59:27Z</time>
      </trkpt>
      <trkpt lat="42.707939" lon="0.550926">
        <ele>2703.2</ele>
        <time>2019-08-23T12:00:00Z</time>
      </trkpt>
      <trkpt lat="42.707883" lon="0.550944">
        <ele>2708.3</ele>
        <time>2019-08-23T12:00:36Z</time>
      </trkpt>
      <trkpt lat="42.707848" lon="0.550966">
        <ele>2711.3</ele>
        <time>2019-08-23T12:01:19Z</time>
      </trkpt>
      <trkpt lat="42.707815" lon="0.550991">
        <ele>2714.7</ele>
        <time>2019-08-23T12:01:43Z</time>
      </trkpt>
      <trkpt lat="42.707751" lon="0.551032">
        <ele>2716.8</ele>
        <time>2019-08-23T12:02:00Z</time>
      </trkpt>
      <trkpt lat="42.707680" lon="0.551007">
        <ele>2721.1</ele>
        <time>2019-08-23T12:02:24Z</time>
      </trkpt>
      <trkpt lat="42.707656" lon="0.550911">
        <ele>2725.6</ele>
        <time>2019-08-23T12:02:52Z</time>
      </trkpt>
      <trkpt lat="42.707583" lon="0.550928">
        <ele>2729.0</ele>
        <time>2019-08-23T12:03:15Z</time>
      </trkpt>
      <trkpt lat="42.707536" lon="0.550972">
        <ele>2732.1</ele>
        <time>2019-08-23T12:03:35Z</time>
      </trkpt>
      <trkpt lat="42.707493" lon="0.550949">
        <ele>2736.4</ele>
        <time>2019-08-23T12:03:59Z</time>
      </trkpt>
      <trkpt lat="42.707439" lon="0.550855">
        <ele>2740.2</ele>
        <time>2019-08-23T12:04:18Z</time>
      </trkpt>
      <trkpt lat="42.707364" lon="0.550811">
        <ele>2743.8</ele>
        <time>2019-08-23T12:04:40Z</time>
      </trkpt>
      <trkpt lat="42.707294" lon="0.550891">
        <ele>2746.3</ele>
        <time>2019-08-23T12:04:58Z</time>
      </trkpt>
      <trkpt lat="42.707235" lon="0.550829">
        <ele>2749.9</ele>
        <time>2019-08-23T12:05:17Z</time>
      </trkpt>
      <trkpt lat="42.707165" lon="0.550863">
        <ele>2752.8</ele>
        <time>2019-08-23T12:05:53Z</time>
      </trkpt>
      <trkpt lat="42.707084" lon="0.550820">
        <ele>2755.6</ele>
        <time>2019-08-23T12:06:12Z</time>
      </trkpt>
      <trkpt lat="42.707012" lon="0.550752">
        <ele>2758.1</ele>
        <time>2019-08-23T12:06:30Z</time>
      </trkpt>
      <trkpt lat="42.706926" lon="0.550697">
        <ele>2761.1</ele>
        <time>2019-08-23T12:07:03Z</time>
      </trkpt>
      <trkpt lat="42.706820" lon="0.550659">
        <ele>2763.6</ele>
        <time>2019-08-23T12:07:24Z</time>
      </trkpt>
      <trkpt lat="42.706737" lon="0.550640">
        <ele>2766.0</ele>
        <time>2019-08-23T12:07:44Z</time>
      </trkpt>
      <trkpt lat="42.706659" lon="0.550606">
        <ele>2767.6</ele>
        <time>2019-08-23T12:07:56Z</time>
      </trkpt>
      <trkpt lat="42.706598" lon="0.550595">
        <ele>2770.4</ele>
        <time>2019-08-23T12:08:17Z</time>
      </trkpt>
      <trkpt lat="42.706523" lon="0.550612">
        <ele>2773.8</ele>
        <time>2019-08-23T12:08:39Z</time>
      </trkpt>
      <trkpt lat="42.706455" lon="0.550582">
        <ele>2777.1</ele>
        <time>2019-08-23T12:09:14Z</time>
      </trkpt>
      <trkpt lat="42.706391" lon="0.550526">
        <ele>2779.3</ele>
        <time>2019-08-23T12:09:39Z</time>
      </trkpt>
      <trkpt lat="42.706320" lon="0.550496">
        <ele>2781.8</ele>
        <time>2019-08-23T12:10:00Z</time>
      </trkpt>
      <trkpt lat="42.706245" lon="0.550446">
        <ele>2783.1</ele>
        <time>2019-08-23T12:10:22Z</time>
      </trkpt>
      <trkpt lat="42.706191" lon="0.550384">
        <ele>2785.7</ele>
        <time>2019-08-23T12:10:54Z</time>
      </trkpt>
      <trkpt lat="42.706127" lon="0.550305">
        <ele>2788.4</ele>
        <time>2019-08-23T12:11:21Z</time>
      </trkpt>
      <trkpt lat="42.706069" lon="0.550246">
        <ele>2791.5</ele>
        <time>2019-08-23T12:11:43Z</time>
      </trkpt>
      <trkpt lat="42.705996" lon="0.550232">
        <ele>2794.2</ele>
        <time>2019-08-23T12:12:03Z</time>
      </trkpt>
      <trkpt lat="42.705946" lon="0.550177">
        <ele>2798.2</ele>
        <time>2019-08-23T12:12:30Z</time>
      </trkpt>
      <trkpt lat="42.705872" lon="0.550171">
        <ele>2801.6</ele>
        <time>2019-08-23T12:12:50Z</time>
      </trkpt>
      <trkpt lat="42.705825" lon="0.550180">
        <ele>2805.8</ele>
        <time>2019-08-23T12:13:17Z</time>
      </trkpt>
      <trkpt lat="42.705743" lon="0.550146">
        <ele>2807.4</ele>
        <time>2019-08-23T12:15:07Z</time>
      </trkpt>
      <trkpt lat="42.705686" lon="0.550083">
        <ele>2810.1</ele>
        <time>2019-08-23T12:15:27Z</time>
      </trkpt>
      <trkpt lat="42.705720" lon="0.549997">
        <ele>2812.6</ele>
        <time>2019-08-23T12:15:46Z</time>
      </trkpt>
      <trkpt lat="42.705731" lon="0.549902">
        <ele>2815.1</ele>
        <time>2019-08-23T12:16:06Z</time>
      </trkpt>
      <trkpt lat="42.705717" lon="0.549800">
        <ele>2818.0</ele>
        <time>2019-08-23T12:16:30Z</time>
      </trkpt>
      <trkpt lat="42.705661" lon="0.549725">
        <ele>2821.2</ele>
        <time>2019-08-23T12:16:51Z</time>
      </trkpt>
      <trkpt lat="42.705627" lon="0.549651">
        <ele>2824.5</ele>
        <time>2019-08-23T12:17:18Z</time>
      </trkpt>
      <trkpt lat="42.705622" lon="0.549582">
        <ele>2828.3</ele>
        <time>2019-08-23T12:17:50Z</time>
      </trkpt>
      <trkpt lat="42.705570" lon="0.549492">
        <ele>2831.3</ele>
        <time>2019-08-23T12:18:10Z</time>
      </trkpt>
      <trkpt lat="42.705499" lon="0.549442">
        <ele>2834.4</ele>
        <time>2019-08-23T12:18:41Z</time>
      </trkpt>
      <trkpt lat="42.705449" lon="0.549391">
        <ele>2837.4</ele>
        <time>2019-08-23T12:19:18Z</time>
      </trkpt>
      <trkpt lat="42.705443" lon="0.549310">
        <ele>2841.7</ele>
        <time>2019-08-23T12:19:49Z</time>
      </trkpt>
      <trkpt lat="42.705451" lon="0.549210">
        <ele>2845.8</ele>
        <time>2019-08-23T12:20:14Z</time>
      </trkpt>
      <trkpt lat="42.705411" lon="0.549123">
        <ele>2848.0</ele>
        <time>2019-08-23T12:20:37Z</time>
      </trkpt>
      <trkpt lat="42.705321" lon="0.549067">
        <ele>2847.6</ele>
        <time>2019-08-23T12:21:05Z</time>
      </trkpt>
      <trkpt lat="42.705247" lon="0.549018">
        <ele>2850.2</ele>
        <time>2019-08-23T12:21:23Z</time>
      </trkpt>
      <trkpt lat="42.705184" lon="0.548959">
        <ele>2852.1</ele>
        <time>2019-08-23T12:21:41Z</time>
      </trkpt>
      <trkpt lat="42.705111" lon="0.548893">
        <ele>2852.9</ele>
        <time>2019-08-23T12:22:00Z</time>
      </trkpt>
      <trkpt lat="42.705030" lon="0.548848">
        <ele>2853.7</ele>
        <time>2019-08-23T12:22:16Z</time>
      </trkpt>
      <trkpt lat="42.704968" lon="0.548760">
        <ele>2856.2</ele>
        <time>2019-08-23T12:22:36Z</time>
      </trkpt>
      <trkpt lat="42.704900" lon="0.548673">
        <ele>2857.1</ele>
        <time>2019-08-23T12:22:49Z</time>
      </trkpt>
      <trkpt lat="42.704816" lon="0.548596">
        <ele>2858.1</ele>
        <time>2019-08-23T12:23:02Z</time>
      </trkpt>
      <trkpt lat="42.704717" lon="0.548544">
        <ele>2858.5</ele>
        <time>2019-08-23T12:23:16Z</time>
      </trkpt>
      <trkpt lat="42.704622" lon="0.548509">
        <ele>2857.6</ele>
        <time>2019-08-23T12:23:50Z</time>
      </trkpt>
      <trkpt lat="42.704619" lon="0.548428">
        <ele>2860.2</ele>
        <time>2019-08-23T12:24:42Z</time>
      </trkpt>
      <trkpt lat="42.704567" lon="0.548337">
        <ele>2862.9</ele>
        <time>2019-08-23T12:25:02Z</time>
      </trkpt>
      <trkpt lat="42.704500" lon="0.548266">
        <ele>2865.9</ele>
        <time>2019-08-23T12:25:22Z</time>
      </trkpt>
      <trkpt lat="42.704461" lon="0.548170">
        <ele>2869.5</ele>
        <time>2019-08-23T12:25:50Z</time>
      </trkpt>
      <trkpt lat="42.704445" lon="0.548106">
        <ele>2873.4</ele>
        <time>2019-08-23T12:26:17Z</time>
      </trkpt>
      <trkpt lat="42.704396" lon="0.548012">
        <ele>2877.8</ele>
        <time>2019-08-23T12:26:40Z</time>
      </trkpt>
      <trkpt lat="42.704339" lon="0.547905">
        <ele>2883.2</ele>
        <time>2019-08-23T12:27:11Z</time>
      </trkpt>
      <trkpt lat="42.704283" lon="0.547791">
        <ele>2888.8</ele>
        <time>2019-08-23T12:27:49Z</time>
      </trkpt>
      <trkpt lat="42.704202" lon="0.547732">
        <ele>2892.0</ele>
        <time>2019-08-23T12:28:09Z</time>
      </trkpt>
      <trkpt lat="42.704127" lon="0.547666">
        <ele>2895.3</ele>
        <time>2019-08-23T12:28:27Z</time>
      </trkpt>
      <trkpt lat="42.704116" lon="0.547592">
        <ele>2899.4</ele>
        <time>2019-08-23T12:28:54Z</time>
      </trkpt>
      <trkpt lat="42.704033" lon="0.547541">
        <ele>2900.6</ele>
        <time>2019-08-23T12:29:10Z</time>
      </trkpt>
      <trkpt lat="42.703976" lon="0.547461">
        <ele>2904.1</ele>
        <time>2019-08-23T12:29:53Z</time>
      </trkpt>
      <trkpt lat="42.703939" lon="0.547447">
        <ele>2905.0</ele>
        <time>2019-08-23T12:30:54Z</time>
      </trkpt>
      <trkpt lat="42.703909" lon="0.547376">
        <ele>2928.8</ele>
        <time>2019-08-23T12:31:10Z</time>
      </trkpt>
      <trkpt lat="42.703926" lon="0.547347">
        <ele>2908.4</ele>
        <time>2019-08-23T12:33:01Z</time>
      </trkpt>
      <trkpt lat="42.703903" lon="0.547203">
        <ele>2913.2</ele>
        <time>2019-08-23T12:33:43Z</time>
      </trkpt>
      <trkpt lat="42.703831" lon="0.547142">
        <ele>2914.3</ele>
        <time>2019-08-23T12:34:02Z</time>
      </trkpt>
      <trkpt lat="42.703782" lon="0.547054">
        <ele>2917.7</ele>
        <time>2019-08-23T12:34:28Z</time>
      </trkpt>
      <trkpt lat="42.703761" lon="0.546960">
        <ele>2920.5</ele>
        <time>2019-08-23T12:34:52Z</time>
      </trkpt>
      <trkpt lat="42.703705" lon="0.546896">
        <ele>2924.5</ele>
        <time>2019-08-23T12:35:24Z</time>
      </trkpt>
      <trkpt lat="42.703731" lon="0.546793">
        <ele>2927.7</ele>
        <time>2019-08-23T12:35:50Z</time>
      </trkpt>
      <trkpt lat="42.703722" lon="0.546737">
        <ele>2930.7</ele>
        <time>2019-08-23T12:36:22Z</time>
      </trkpt>
      <trkpt lat="42.703671" lon="0.546695">
        <ele>2934.1</ele>
        <time>2019-08-23T12:36:53Z</time>
      </trkpt>
      <trkpt lat="42.703621" lon="0.546650">
        <ele>2937.3</ele>
        <time>2019-08-23T12:37:20Z</time>
      </trkpt>
      <trkpt lat="42.703591" lon="0.546608">
        <ele>2942.2</ele>
        <time>2019-08-23T12:37:49Z</time>
      </trkpt>
      <trkpt lat="42.703506" lon="0.546568">
        <ele>2944.7</ele>
        <time>2019-08-23T12:38:10Z</time>
      </trkpt>
      <trkpt lat="42.703445" lon="0.546607">
        <ele>2946.9</ele>
        <time>2019-08-23T12:38:52Z</time>
      </trkpt>
      <trkpt lat="42.703404" lon="0.546598">
        <ele>2950.1</ele>
        <time>2019-08-23T12:39:21Z</time>
      </trkpt>
      <trkpt lat="42.703400" lon="0.546545">
        <ele>2951.7</ele>
        <time>2019-08-23T12:39:40Z</time>
      </trkpt>
      <trkpt lat="42.703409" lon="0.546460">
        <ele>2958.4</ele>
        <time>2019-08-23T12:40:02Z</time>
      </trkpt>
      <trkpt lat="42.703437" lon="0.546418">
        <ele>2960.0</ele>
        <time>2019-08-23T12:40:58Z</time>
      </trkpt>
      <trkpt lat="42.703504" lon="0.546362">
        <ele>2962.5</ele>
        <time>2019-08-23T12:41:18Z</time>
      </trkpt>
      <trkpt lat="42.703583" lon="0.546331">
        <ele>2962.9</ele>
        <time>2019-08-23T12:42:17Z</time>
      </trkpt>
      <trkpt lat="42.703629" lon="0.546293">
        <ele>2963.5</ele>
        <time>2019-08-23T12:43:39Z</time>
      </trkpt>
      <trkpt lat="42.703614" lon="0.546257">
        <ele>2967.5</ele>
        <time>2019-08-23T12:46:12Z</time>
      </trkpt>
      <trkpt lat="42.703513" lon="0.546186">
        <ele>2974.2</ele>
        <time>2019-08-23T12:48:23Z</time>
      </trkpt>
      <trkpt lat="42.703445" lon="0.546123">
        <ele>2978.2</ele>
        <time>2019-08-23T12:48:49Z</time>
      </trkpt>
      <trkpt lat="42.703356" lon="0.546086">
        <ele>2981.7</ele>
        <time>2019-08-23T12:49:10Z</time>
      </trkpt>
      <trkpt lat="42.703315" lon="0.546105">
        <ele>2984.3</ele>
        <time>2019-08-23T12:49:47Z</time>
      </trkpt>
      <trkpt lat="42.703263" lon="0.546091">
        <ele>2988.3</ele>
        <time>2019-08-23T12:50:41Z</time>
      </trkpt>
      <trkpt lat="42.703211" lon="0.546033">
        <ele>2990.9</ele>
        <time>2019-08-23T12:51:05Z</time>
      </trkpt>
      <trkpt lat="42.703161" lon="0.545966">
        <ele>2994.8</ele>
        <time>2019-08-23T12:51:26Z</time>
      </trkpt>
      <trkpt lat="42.703084" lon="0.545919">
        <ele>2997.0</ele>
        <time>2019-08-23T12:51:44Z</time>
      </trkpt>
      <trkpt lat="42.703012" lon="0.545914">
        <ele>2999.5</ele>
        <time>2019-08-23T12:52:04Z</time>
      </trkpt>
      <trkpt lat="42.702977" lon="0.545986">
        <ele>3004.4</ele>
        <time>2019-08-23T12:52:51Z</time>
      </trkpt>
      <trkpt lat="42.702925" lon="0.546041">
        <ele>3009.7</ele>
        <time>2019-08-23T12:53:21Z</time>
      </trkpt>
      <trkpt lat="42.702839" lon="0.546135">
        <ele>3018.2</ele>
        <time>2019-08-23T12:55:24Z</time>
      </trkpt>
      <trkpt lat="42.702781" lon="0.546221">
        <ele>3019.8</ele>
        <time>2019-08-23T12:55:47Z</time>
      </trkpt>
      <trkpt lat="42.702725" lon="0.546269">
        <ele>3023.8</ele>
        <time>2019-08-23T12:56:19Z</time>
      </trkpt>
      <trkpt lat="42.702679" lon="0.546254">
        <ele>3028.2</ele>
        <time>2019-08-23T12:57:07Z</time>
      </trkpt>
      <trkpt lat="42.702625" lon="0.546299">
        <ele>3031.4</ele>
        <time>2019-08-23T12:57:27Z</time>
      </trkpt>
      <trkpt lat="42.702576" lon="0.546225">
        <ele>3035.1</ele>
        <time>2019-08-23T12:57:57Z</time>
      </trkpt>
      <trkpt lat="42.702511" lon="0.546232">
        <ele>3040.5</ele>
        <time>2019-08-23T12:58:34Z</time>
      </trkpt>
      <trkpt lat="42.702472" lon="0.546250">
        <ele>3043.9</ele>
        <time>2019-08-23T12:59:17Z</time>
      </trkpt>
      <trkpt lat="42.702428" lon="0.546317">
        <ele>3047.3</ele>
        <time>2019-08-23T12:59:44Z</time>
      </trkpt>
      <trkpt lat="42.702357" lon="0.546372">
        <ele>3051.9</ele>
        <time>2019-08-23T13:00:14Z</time>
      </trkpt>
      <trkpt lat="42.702290" lon="0.546349">
        <ele>3055.0</ele>
        <time>2019-08-23T13:00:37Z</time>
      </trkpt>
      <trkpt lat="42.702246" lon="0.546413">
        <ele>3058.7</ele>
        <time>2019-08-23T13:01:04Z</time>
      </trkpt>
      <trkpt lat="42.702223" lon="0.546431">
        <ele>3060.3</ele>
        <time>2019-08-23T13:01:33Z</time>
      </trkpt>
      <trkpt lat="42.702167" lon="0.546408">
        <ele>3062.2</ele>
        <time>2019-08-23T13:02:15Z</time>
      </trkpt>
      <trkpt lat="42.702092" lon="0.546451">
        <ele>3065.9</ele>
        <time>2019-08-23T13:02:51Z</time>
      </trkpt>
      <trkpt lat="42.702035" lon="0.546363">
        <ele>3068.6</ele>
        <time>2019-08-23T13:03:44Z</time>
      </trkpt>
      <trkpt lat="42.701988" lon="0.546287">
        <ele>3070.4</ele>
        <time>2019-08-23T13:04:00Z</time>
      </trkpt>
      <trkpt lat="42.701933" lon="0.546202">
        <ele>3071.9</ele>
        <time>2019-08-23T13:04:13Z</time>
      </trkpt>
      <trkpt lat="42.701901" lon="0.546159">
        <ele>3075.0</ele>
        <time>2019-08-23T13:04:34Z</time>
      </trkpt>
      <trkpt lat="42.701866" lon="0.546238">
        <ele>3078.0</ele>
        <time>2019-08-23T13:05:00Z</time>
      </trkpt>
      <trkpt lat="42.701830" lon="0.546228">
        <ele>3084.8</ele>
        <time>2019-08-23T13:07:54Z</time>
      </trkpt>
      <trkpt lat="42.701814" lon="0.546264">
        <ele>3087.7</ele>
        <time>2019-08-23T13:08:18Z</time>
      </trkpt>
      <trkpt lat="42.701744" lon="0.546286">
        <ele>3093.3</ele>
        <time>2019-08-23T13:10:06Z</time>
      </trkpt>
      <trkpt lat="42.701687" lon="0.546201">
        <ele>3098.4</ele>
        <time>2019-08-23T13:11:25Z</time>
      </trkpt>
      <trkpt lat="42.701606" lon="0.546151">
        <ele>3100.9</ele>
        <time>2019-08-23T13:12:04Z</time>
      </trkpt>
      <trkpt lat="42.701591" lon="0.546120">
        <ele>3103.9</ele>
        <time>2019-08-23T13:13:00Z</time>
      </trkpt>
      <trkpt lat="42.701528" lon="0.546048">
        <ele>3106.3</ele>
        <time>2019-08-23T13:13:24Z</time>
      </trkpt>
      <trkpt lat="42.701525" lon="0.546043">
        <ele>3105.4</ele>
        <time>2019-08-23T13:14:42Z</time>
      </trkpt>
      <trkpt lat="42.701507" lon="0.545935">
        <ele>3105.7</ele>
        <time>2019-08-23T13:15:02Z</time>
      </trkpt>
      <trkpt lat="42.701451" lon="0.545824">
        <ele>3106.2</ele>
        <time>2019-08-23T13:15:36Z</time>
      </trkpt>
      <trkpt lat="42.701449" lon="0.545714">
        <ele>3106.7</ele>
        <time>2019-08-23T13:15:56Z</time>
      </trkpt>
      <trkpt lat="42.701439" lon="0.545614">
        <ele>3106.6</ele>
        <time>2019-08-23T13:16:36Z</time>
      </trkpt>
      <trkpt lat="42.701392" lon="0.545610">
        <ele>3103.9</ele>
        <time>2019-08-23T13:28:06Z</time>
      </trkpt>
      <trkpt lat="42.701378" lon="0.545537">
        <ele>3105.0</ele>
        <time>2019-08-23T13:33:18Z</time>
      </trkpt>
      <trkpt lat="42.701391" lon="0.545553">
        <ele>3104.1</ele>
        <time>2019-08-23T13:39:35Z</time>
      </trkpt>
      <trkpt lat="42.701393" lon="0.545443">
        <ele>3102.7</ele>
        <time>2019-08-23T13:41:25Z</time>
      </trkpt>
    </trkseg>
  </trk>
</gpx>

